Observation data for Goodnight on 03/20/2017      Previous  Date  Next       Current Mesonet Observations  Soil Data  Daily Summary Page  Observations in Plain Language
KGO1 200501Z 23011KT 20/05 A3005 RMK A01 T02040046  RH  035%=      5-min Rain = 0
KGO1 200502Z 23011KT 20/05 A3005 RMK A01 T02000045  RH  036%=      5-min Rain = 0
KGO1 200503Z 23011KT 20/05 A3005 RMK A01 T01990045  RH  036%=      5-min Rain = 0
KGO1 200504Z 22013KT 20/05 A3005 RMK A01 T01980046  RH  037%=      5-min Rain = 0
KGO1 200505Z 23012KT 20/05 A3005 RMK A01 T01990048  RH  037%=      5-min Rain = 0
KGO1 200506Z 23015KT 20/05 A3005 RMK A01 T02020050  RH  037%=      5-min Rain = 0
KGO1 200507Z 23017G22KT 21/06 A3005 RMK A01 T02070055  RH  037%=      5-min Rain = 0
KGO1 200508Z 22017KT 22/06 A3005 RMK A01 T02150058  RH  036%=      5-min Rain = 0
KGO1 200509Z 22016KT 22/06 A3005 RMK A01 T02200059  RH  035%=      5-min Rain = 0
KGO1 200510Z 23014KT 22/06 A3005 RMK A01 T02220059  RH  035%=      5-min Rain = 0
KGO1 200511Z 23013KT 22/06 A3005 RMK A01 T02230059  RH  034%=      5-min Rain = 0
KGO1 200512Z 23012KT 22/06 A3005 RMK A01 T02210058  RH  035%=      5-min Rain = 0
KGO1 200513Z 23014KT 22/06 A3005 RMK A01 T02180057  RH  035%=      5-min Rain = 0
KGO1 200514Z 23014KT 22/06 A3005 RMK A01 T02170057  RH  035%=      5-min Rain = 0
KGO1 200515Z 23014KT 22/06 A3005 RMK A01 T02150056  RH  036%=      5-min Rain = 0
KGO1 200516Z 23015KT 21/06 A3005 RMK A01 T02140056  RH  036%=      5-min Rain = 0
KGO1 200517Z 23016KT 22/06 A3005 RMK A01 T02150057  RH  036%=      5-min Rain = 0
KGO1 200518Z 22015KT 22/06 A3005 RMK A01 T02180058  RH  035%=      5-min Rain = 0
KGO1 200519Z 22017KT 22/06 A3004 RMK A01 T02190058  RH  035%=      5-min Rain = 0
KGO1 200520Z 22017KT 22/06 A3004 RMK A01 T02220059  RH  035%=      5-min Rain = 0
KGO1 200521Z 22016KT 23/06 A3004 RMK A01 T02250059  RH  034%=      5-min Rain = 0
KGO1 200522Z 22017KT 23/06 A3004 RMK A01 T02250059  RH  034%=      5-min Rain = 0
KGO1 200523Z 22019KT 23/06 A3004 RMK A01 T02260059  RH  034%=      5-min Rain = 0
KGO1 200524Z 22017KT 23/06 A3004 RMK A01 T02280059  RH  033%=      5-min Rain = 0
KGO1 200525Z 22020KT 23/06 A3004 RMK A01 T02290059  RH  033%=      5-min Rain = 0
KGO1 200526Z 22020KT 23/06 A3004 RMK A01 T02300059  RH  033%=      5-min Rain = 0
KGO1 200527Z 23018KT 23/06 A3004 RMK A01 T02300058  RH  033%=      5-min Rain = 0
KGO1 200528Z 22020KT 23/06 A3004 RMK A01 T02300059  RH  033%=      5-min Rain = 0
KGO1 200529Z 22020KT 23/06 A3004 RMK A01 T02300059  RH  033%=      5-min Rain = 0
KGO1 200530Z 21018KT 23/06 A3004 RMK A01 T02300059  RH  033%=      5-min Rain = 0
KGO1 200531Z 22017KT 23/06 A3004 RMK A01 T02290058  RH  033%=      5-min Rain = 0
KGO1 200532Z 22018KT 23/06 A3004 RMK A01 T02270058  RH  033%=      5-min Rain = 0
KGO1 200533Z 22021KT 23/06 A3004 RMK A01 T02270059  RH  034%=      5-min Rain = 0
KGO1 200534Z 22019KT 23/06 A3004 RMK A01 T02280060  RH  034%=      5-min Rain = 0
KGO1 200535Z 22018KT 23/06 A3004 RMK A01 T02280060  RH  034%=      5-min Rain = 0
KGO1 200536Z 21019KT 23/06 A3004 RMK A01 T02280061  RH  034%=      5-min Rain = 0
KGO1 200537Z 22018KT 23/06 A3004 RMK A01 T02280061  RH  034%=      5-min Rain = 0
KGO1 200538Z 22016KT 23/06 A3004 RMK A01 T02270060  RH  034%=      5-min Rain = 0
KGO1 200539Z 21017KT 23/06 A3004 RMK A01 T02250061  RH  034%=      5-min Rain = 0
KGO1 200540Z 22021G26KT 23/06 A3004 RMK A01 T02250061  RH  035%=      5-min Rain = 0
KGO1 200541Z 21020KT 23/06 A3004 RMK A01 T02260062  RH  034%=      5-min Rain = 0
KGO1 200542Z 21019G25KT 23/06 A3004 RMK A01 T02270061  RH  034%=      5-min Rain = 0
KGO1 200543Z 21021KT 23/06 A3004 RMK A01 T02270061  RH  034%=      5-min Rain = 0
KGO1 200544Z 21021KT 23/06 A3004 RMK A01 T02270061  RH  034%=      5-min Rain = 0
KGO1 200545Z 22020G27KT 23/06 A3004 RMK A01 T02270061  RH  034%=      5-min Rain = 0
KGO1 200546Z 21019KT 23/06 A3004 RMK A01 T02270061  RH  034%=      5-min Rain = 0
KGO1 200547Z 21018KT 23/06 A3004 RMK A01 T02270060  RH  034%=      5-min Rain = 0
KGO1 200548Z 22018KT 23/06 A3004 RMK A01 T02270061  RH  034%=      5-min Rain = 0
KGO1 200549Z 22019KT 23/06 A3004 RMK A01 T02270061  RH  034%=      5-min Rain = 0
KGO1 200550Z 21018KT 23/06 A3004 RMK A01 T02270061  RH  034%=      5-min Rain = 0
KGO1 200551Z 22019KT 23/06 A3004 RMK A01 T02270061  RH  034%=      5-min Rain = 0
KGO1 200552Z 22016KT 23/06 A3004 RMK A01 T02270061  RH  034%=      5-min Rain = 0
KGO1 200553Z 22018KT 23/06 A3004 RMK A01 T02250061  RH  034%=      5-min Rain = 0
KGO1 200554Z 22016KT 23/06 A3004 RMK A01 T02250061  RH  035%=      5-min Rain = 0
KGO1 200555Z 22014KT 23/06 A3004 RMK A01 T02260061  RH  034%=      5-min Rain = 0
KGO1 200556Z 22015KT 23/06 A3004 RMK A01 T02250061  RH  035%=      5-min Rain = 0
KGO1 200557Z 22015KT 22/06 A3004 RMK A01 T02240062  RH  035%=      5-min Rain = 0
KGO1 200558Z 22014KT 22/06 A3004 RMK A01 T02240062  RH  035%=      5-min Rain = 0
KGO1 200559Z 22015KT 22/06 A3004 RMK A01 T02230061  RH  035%=      5-min Rain = 0
KGO1 200600Z 22015KT 22/06 A3004 RMK A01 T02220061  RH  035%=      5-min Rain = 0
KGO1 200601Z 22013KT 22/06 A3004 RMK A01 T02220061  RH  035%=      5-min Rain = 0
KGO1 200602Z 21014KT 22/06 A3004 RMK A01 T02210061  RH  035%=      5-min Rain = 0
KGO1 200603Z 21015KT 22/06 A3004 RMK A01 T02200060  RH  035%=      5-min Rain = 0
KGO1 200604Z 21015KT 22/06 A3004 RMK A01 T02200060  RH  035%=      5-min Rain = 0
KGO1 200605Z 21015KT 22/06 A3004 RMK A01 T02200060  RH  035%=      5-min Rain = 0
KGO1 200606Z 21013KT 22/06 A3004 RMK A01 T02200059  RH  035%=      5-min Rain = 0
KGO1 200607Z 21013KT 22/06 A3004 RMK A01 T02190059  RH  035%=      5-min Rain = 0
KGO1 200608Z 21017KT 22/06 A3004 RMK A01 T02190059  RH  035%=      5-min Rain = 0
KGO1 200609Z 21014KT 22/06 A3004 RMK A01 T02210059  RH  035%=      5-min Rain = 0
KGO1 200610Z 21014KT 22/06 A3004 RMK A01 T02210059  RH  035%=      5-min Rain = 0
KGO1 200611Z 21014KT 22/06 A3004 RMK A01 T02190058  RH  035%=      5-min Rain = 0
KGO1 200612Z 21015KT 22/06 A3004 RMK A01 T02180057  RH  035%=      5-min Rain = 0
KGO1 200613Z 21014KT 22/06 A3004 RMK A01 T02180057  RH  035%=      5-min Rain = 0
KGO1 200614Z 21015KT 22/06 A3003 RMK A01 T02170057  RH  035%=      5-min Rain = 0
KGO1 200615Z 21015KT 22/06 A3003 RMK A01 T02170056  RH  035%=      5-min Rain = 0
KGO1 200616Z 21014KT 22/06 A3003 RMK A01 T02160056  RH  035%=      5-min Rain = 0
KGO1 200617Z 21015KT 22/06 A3003 RMK A01 T02160055  RH  035%=      5-min Rain = 0
KGO1 200618Z 21016KT 22/05 A3003 RMK A01 T02160054  RH  035%=      5-min Rain = 0
KGO1 200619Z 21014KT 22/06 A3003 RMK A01 T02180055  RH  035%=      5-min Rain = 0
KGO1 200620Z 22015KT 22/05 A3003 RMK A01 T02180054  RH  034%=      5-min Rain = 0
KGO1 200621Z 21015KT 22/05 A3003 RMK A01 T02170053  RH  034%=      5-min Rain = 0
KGO1 200622Z 21013KT 22/05 A3003 RMK A01 T02170053  RH  034%=      5-min Rain = 0
KGO1 200623Z 22017KT 22/05 A3003 RMK A01 T02170052  RH  034%=      5-min Rain = 0
KGO1 200624Z 21015KT 22/05 A3003 RMK A01 T02180051  RH  034%=      5-min Rain = 0
KGO1 200625Z 22016KT 22/05 A3003 RMK A01 T02180050  RH  033%=      5-min Rain = 0
KGO1 200626Z 21015KT 22/05 A3003 RMK A01 T02190050  RH  033%=      5-min Rain = 0
KGO1 200627Z 22017KT 22/05 A3003 RMK A01 T02190049  RH  033%=      5-min Rain = 0
KGO1 200628Z 22015KT 22/05 A3003 RMK A01 T02200049  RH  033%=      5-min Rain = 0
KGO1 200629Z 22015KT 22/05 A3003 RMK A01 T02200049  RH  033%=      5-min Rain = 0
KGO1 200630Z 22016KT 22/05 A3003 RMK A01 T02200049  RH  033%=      5-min Rain = 0
KGO1 200631Z 22017KT 22/05 A3003 RMK A01 T02200049  RH  033%=      5-min Rain = 0
KGO1 200632Z 23016KT 22/05 A3003 RMK A01 T02200049  RH  033%=      5-min Rain = 0
KGO1 200633Z 22015G20KT 22/05 A3003 RMK A01 T02210049  RH  033%=      5-min Rain = 0
KGO1 200634Z 23016KT 22/05 A3003 RMK A01 T02190048  RH  033%=      5-min Rain = 0
KGO1 200635Z 23016KT 22/05 A3003 RMK A01 T02190048  RH  033%=      5-min Rain = 0
KGO1 200636Z 23017KT 22/05 A3003 RMK A01 T02180048  RH  033%=      5-min Rain = 0
KGO1 200637Z 22017KT 22/05 A3003 RMK A01 T02180048  RH  033%=      5-min Rain = 0
KGO1 200638Z 22017G22KT 22/05 A3003 RMK A01 T02180047  RH  033%=      5-min Rain = 0
KGO1 200639Z 23018KT 22/05 A3003 RMK A01 T02180046  RH  032%=      5-min Rain = 0
KGO1 200640Z 22016KT 22/05 A3003 RMK A01 T02180045  RH  032%=      5-min Rain = 0
KGO1 200641Z 22016KT 22/04 A3003 RMK A01 T02180044  RH  032%=      5-min Rain = 0
KGO1 200642Z 23018G23KT 22/04 A3003 RMK A01 T02170043  RH  032%=      5-min Rain = 0
KGO1 200643Z 23017G22KT 22/04 A3003 RMK A01 T02170042  RH  032%=      5-min Rain = 0
KGO1 200644Z 23017KT 22/04 A3003 RMK A01 T02180041  RH  031%=      5-min Rain = 0
KGO1 200645Z 23016KT 22/04 A3003 RMK A01 T02180041  RH  031%=      5-min Rain = 0
KGO1 200646Z 23015KT 22/04 A3003 RMK A01 T02170040  RH  031%=      5-min Rain = 0
KGO1 200647Z 22018KT 22/04 A3003 RMK A01 T02160040  RH  031%=      5-min Rain = 0
KGO1 200648Z 22018KT 22/04 A3003 RMK A01 T02180040  RH  031%=      5-min Rain = 0
KGO1 200649Z 22017KT 22/04 A3003 RMK A01 T02200041  RH  031%=      5-min Rain = 0
KGO1 200650Z 22018KT 22/04 A3003 RMK A01 T02200040  RH  031%=      5-min Rain = 0
KGO1 200651Z 23017KT 22/04 A3003 RMK A01 T02210040  RH  031%=      5-min Rain = 0
KGO1 200652Z 23017KT 22/04 A3003 RMK A01 T02210041  RH  031%=      5-min Rain = 0
KGO1 200653Z 23017KT 22/04 A3003 RMK A01 T02210041  RH  031%=      5-min Rain = 0
KGO1 200654Z 23019KT 22/04 A3003 RMK A01 T02210041  RH  031%=      5-min Rain = 0
KGO1 200655Z 23019KT 22/04 A3003 RMK A01 T02220042  RH  031%=      5-min Rain = 0
KGO1 200656Z 22018KT 22/04 A3003 RMK A01 T02230042  RH  031%=      5-min Rain = 0
KGO1 200657Z 22018KT 22/04 A3003 RMK A01 T02230043  RH  031%=      5-min Rain = 0
KGO1 200658Z 22019G25KT 22/04 A3003 RMK A01 T02230043  RH  031%=      5-min Rain = 0
KGO1 200659Z 23017KT 22/04 A3003 RMK A01 T02230044  RH  031%=      5-min Rain = 0
KGO1 200700Z 23017KT 22/05 A3003 RMK A01 T02240045  RH  031%=      5-min Rain = 0
KGO1 200701Z 23016G21KT 22/05 A3003 RMK A01 T02230045  RH  031%=      5-min Rain = 0
KGO1 200702Z 23016KT 22/05 A3003 RMK A01 T02220045  RH  031%=      5-min Rain = 0
KGO1 200703Z 23017KT 22/05 A3003 RMK A01 T02210045  RH  032%=      5-min Rain = 0
KGO1 200704Z 23016KT 22/05 A3003 RMK A01 T02210046  RH  032%=      5-min Rain = 0
KGO1 200705Z 23016KT 22/05 A3003 RMK A01 T02200046  RH  032%=      5-min Rain = 0
KGO1 200706Z 22018KT 22/05 A3003 RMK A01 T02210047  RH  032%=      5-min Rain = 0
KGO1 200707Z 23018KT 22/05 A3003 RMK A01 T02220048  RH  032%=      5-min Rain = 0
KGO1 200708Z 22018G23KT 22/05 A3003 RMK A01 T02230049  RH  032%=      5-min Rain = 0
KGO1 200709Z 23019G24KT 22/05 A3003 RMK A01 T02230049  RH  032%=      5-min Rain = 0
KGO1 200710Z 22017KT 22/05 A3003 RMK A01 T02230049  RH  032%=      5-min Rain = 0
KGO1 200711Z 22018KT 22/05 A3003 RMK A01 T02240050  RH  032%=      5-min Rain = 0
KGO1 200712Z 22020KT 22/05 A3003 RMK A01 T02240051  RH  032%=      5-min Rain = 0
KGO1 200713Z 22019KT 22/05 A3003 RMK A01 T02240051  RH  033%=      5-min Rain = 0
KGO1 200714Z 22018KT 23/05 A3003 RMK A01 T02250052  RH  032%=      5-min Rain = 0
KGO1 200715Z 22019KT 23/05 A3003 RMK A01 T02250052  RH  032%=      5-min Rain = 0
KGO1 200716Z 22022KT 22/05 A3003 RMK A01 T02240053  RH  033%=      5-min Rain = 0
KGO1 200717Z 22020KT 23/05 A3003 RMK A01 T02250054  RH  033%=      5-min Rain = 0
KGO1 200718Z 22022KT 23/05 A3003 RMK A01 T02250053  RH  033%=      5-min Rain = 0
KGO1 200719Z 22021KT 23/05 A3003 RMK A01 T02250054  RH  033%=      5-min Rain = 0
KGO1 200720Z 22021KT 23/06 A3003 RMK A01 T02260055  RH  033%=      5-min Rain = 0
KGO1 200721Z 22018KT 23/06 A3003 RMK A01 T02260055  RH  033%=      5-min Rain = 0
KGO1 200722Z 22022KT 23/06 A3003 RMK A01 T02250055  RH  033%=      5-min Rain = 0
KGO1 200723Z 22021G27KT 23/06 A3003 RMK A01 T02250056  RH  033%=      5-min Rain = 0
KGO1 200724Z 22020G25KT 23/06 A3003 RMK A01 T02260056  RH  033%=      5-min Rain = 0
KGO1 200725Z 22017KT 23/06 A3003 RMK A01 T02250056  RH  033%=      5-min Rain = 0
KGO1 200726Z 22018KT 22/06 A3003 RMK A01 T02230056  RH  034%=      5-min Rain = 0
KGO1 200727Z 22018G23KT 22/06 A3003 RMK A01 T02230057  RH  034%=      5-min Rain = 0
KGO1 200728Z 21016KT 22/06 A3003 RMK A01 T02220057  RH  034%=      5-min Rain = 0
KGO1 200729Z 21016G22KT 22/06 A3003 RMK A01 T02210057  RH  034%=      5-min Rain = 0
KGO1 200730Z 22017KT 22/06 A3003 RMK A01 T02200056  RH  034%=      5-min Rain = 0
KGO1 200731Z 22015KT 22/06 A3004 RMK A01 T02210057  RH  034%=      5-min Rain = 0
KGO1 200732Z 21017KT 22/06 A3003 RMK A01 T02200057  RH  035%=      5-min Rain = 0
KGO1 200733Z 22015G20KT 22/06 A3003 RMK A01 T02190057  RH  035%=      5-min Rain = 0
KGO1 200734Z 21015KT 22/06 A3004 RMK A01 T02190057  RH  035%=      5-min Rain = 0
KGO1 200735Z 22017KT 22/06 A3004 RMK A01 T02190058  RH  035%=      5-min Rain = 0
KGO1 200736Z 22015KT 22/06 A3004 RMK A01 T02200058  RH  035%=      5-min Rain = 0
KGO1 200737Z 22015KT 22/06 A3004 RMK A01 T02200058  RH  035%=      5-min Rain = 0
KGO1 200738Z 22017KT 22/06 A3004 RMK A01 T02190058  RH  035%=      5-min Rain = 0
KGO1 200739Z 22018KT 22/06 A3004 RMK A01 T02190058  RH  035%=      5-min Rain = 0
KGO1 200740Z 22017KT 22/06 A3004 RMK A01 T02190058  RH  035%=      5-min Rain = 0
KGO1 200741Z 23017G24KT 22/06 A3004 RMK A01 T02190058  RH  035%=      5-min Rain = 0
KGO1 200742Z 23020KT 22/06 A3004 RMK A01 T02190058  RH  035%=      5-min Rain = 0
KGO1 200743Z 22022KT 22/06 A3004 RMK A01 T02210058  RH  035%=      5-min Rain = 0
KGO1 200744Z 23020G25KT 22/06 A3004 RMK A01 T02220058  RH  034%=      5-min Rain = 0
KGO1 200745Z 22019KT 22/06 A3004 RMK A01 T02220058  RH  034%=      5-min Rain = 0
KGO1 200746Z 23018KT 22/06 A3004 RMK A01 T02210058  RH  035%=      5-min Rain = 0
KGO1 200747Z 23019G25KT 22/06 A3004 RMK A01 T02210058  RH  035%=      5-min Rain = 0
KGO1 200748Z 23019KT 22/06 A3004 RMK A01 T02200059  RH  035%=      5-min Rain = 0
KGO1 200749Z 23019G24KT 22/06 A3004 RMK A01 T02200059  RH  035%=      5-min Rain = 0
KGO1 200750Z 23019KT 22/06 A3004 RMK A01 T02200059  RH  035%=      5-min Rain = 0
KGO1 200751Z 23020KT 22/06 A3004 RMK A01 T02210059  RH  035%=      5-min Rain = 0
KGO1 200752Z 23019KT 22/06 A3004 RMK A01 T02210060  RH  035%=      5-min Rain = 0
KGO1 200753Z 23019KT 22/06 A3004 RMK A01 T02210060  RH  035%=      5-min Rain = 0
KGO1 200754Z 23018KT 22/06 A3004 RMK A01 T02200061  RH  036%=      5-min Rain = 0
KGO1 200755Z 23020KT 22/06 A3004 RMK A01 T02200060  RH  035%=      5-min Rain = 0
KGO1 200756Z 23020KT 22/06 A3004 RMK A01 T02200060  RH  035%=      5-min Rain = 0
KGO1 200757Z 23019KT 22/06 A3004 RMK A01 T02210060  RH  035%=      5-min Rain = 0
KGO1 200758Z 23017KT 22/06 A3004 RMK A01 T02200060  RH  035%=      5-min Rain = 0
KGO1 200759Z 23019KT 22/06 A3004 RMK A01 T02180060  RH  036%=      5-min Rain = 0
KGO1 200800Z 23017KT 22/06 A3004 RMK A01 T02180060  RH  036%=      5-min Rain = 0
KGO1 200801Z 23018KT 22/06 A3004 RMK A01 T02170060  RH  036%=      5-min Rain = 0
KGO1 200802Z 23016KT 22/06 A3004 RMK A01 T02170059  RH  036%=      5-min Rain = 0
KGO1 200803Z 23016KT 22/06 A3004 RMK A01 T02160059  RH  036%=      5-min Rain = 0
KGO1 200804Z 23015KT 21/06 A3004 RMK A01 T02140059  RH  036%=      5-min Rain = 0
KGO1 200805Z 23015KT 21/06 A3004 RMK A01 T02130059  RH  036%=      5-min Rain = 0
KGO1 200806Z 23013KT 21/06 A3004 RMK A01 T02120058  RH  037%=      5-min Rain = 0
KGO1 200807Z 23014KT 21/06 A3004 RMK A01 T02110058  RH  037%=      5-min Rain = 0
KGO1 200808Z 23014KT 21/06 A3004 RMK A01 T02100058  RH  037%=      5-min Rain = 0
KGO1 200809Z 23013KT 21/06 A3004 RMK A01 T02100058  RH  037%=      5-min Rain = 0
KGO1 200810Z 23013KT 21/06 A3004 RMK A01 T02090058  RH  037%=      5-min Rain = 0
KGO1 200811Z 23013KT 21/06 A3004 RMK A01 T02080057  RH  037%=      5-min Rain = 0
KGO1 200812Z 23012KT 21/06 A3004 RMK A01 T02070057  RH  038%=      5-min Rain = 0
KGO1 200813Z 24012KT 21/06 A3004 RMK A01 T02060057  RH  038%=      5-min Rain = 0
KGO1 200814Z 24011KT 20/06 A3004 RMK A01 T02040056  RH  038%=      5-min Rain = 0
KGO1 200815Z 23012KT 20/06 A3004 RMK A01 T02030056  RH  038%=      5-min Rain = 0
KGO1 200816Z 23012KT 20/06 A3004 RMK A01 T02020056  RH  039%=      5-min Rain = 0
KGO1 200817Z 23012KT 20/06 A3004 RMK A01 T02020057  RH  039%=      5-min Rain = 0
KGO1 200818Z 24012KT 20/06 A3004 RMK A01 T02020057  RH  039%=      5-min Rain = 0
KGO1 200819Z 23012KT 20/06 A3004 RMK A01 T02030057  RH  038%=      5-min Rain = 0
KGO1 200820Z 23012KT 20/06 A3004 RMK A01 T02030057  RH  039%=      5-min Rain = 0
KGO1 200821Z 23011KT 20/06 A3004 RMK A01 T02020057  RH  039%=      5-min Rain = 0
KGO1 200822Z 24012KT 20/06 A3004 RMK A01 T02010057  RH  039%=      5-min Rain = 0
KGO1 200823Z 24012KT 20/06 A3004 RMK A01 T02010058  RH  039%=      5-min Rain = 0
KGO1 200824Z 24013KT 20/06 A3004 RMK A01 T02000058  RH  039%=      5-min Rain = 0
KGO1 200825Z 24013KT 20/06 A3004 RMK A01 T02010059  RH  039%=      5-min Rain = 0
KGO1 200826Z 24012KT 20/06 A3004 RMK A01 T02010059  RH  040%=      5-min Rain = 0
KGO1 200827Z 24013KT 20/06 A3004 RMK A01 T02000060  RH  040%=      5-min Rain = 0
KGO1 200828Z 24013KT 20/06 A3004 RMK A01 T02000060  RH  040%=      5-min Rain = 0
KGO1 200829Z 24013KT 20/06 A3004 RMK A01 T02000061  RH  040%=      5-min Rain = 0
KGO1 200830Z 24013KT 20/06 A3004 RMK A01 T02000061  RH  040%=      5-min Rain = 0
KGO1 200831Z 24014KT 20/06 A3004 RMK A01 T02010062  RH  040%=      5-min Rain = 0
KGO1 200832Z 24014KT 20/06 A3004 RMK A01 T02020062  RH  040%=      5-min Rain = 0
KGO1 200833Z 24013KT 20/06 A3004 RMK A01 T02020062  RH  040%=      5-min Rain = 0
KGO1 200834Z 24016KT 20/06 A3004 RMK A01 T02020062  RH  040%=      5-min Rain = 0
KGO1 200835Z 24016KT 20/06 A3004 RMK A01 T02040063  RH  040%=      5-min Rain = 0
KGO1 200836Z 24016G21KT 21/06 A3004 RMK A01 T02050064  RH  040%=      5-min Rain = 0
KGO1 200837Z 24014KT 21/06 A3004 RMK A01 T02060064  RH  040%=      5-min Rain = 0
KGO1 200838Z 24016KT 21/06 A3004 RMK A01 T02060064  RH  040%=      5-min Rain = 0
KGO1 200839Z 23015KT 21/07 A3004 RMK A01 T02060065  RH  040%=      5-min Rain = 0
KGO1 200840Z 24016KT 21/07 A3004 RMK A01 T02060065  RH  040%=      5-min Rain = 0
KGO1 200841Z 24015KT 21/07 A3004 RMK A01 T02060065  RH  040%=      5-min Rain = 0
KGO1 200842Z 24016KT 21/07 A3004 RMK A01 T02050065  RH  040%=      5-min Rain = 0
KGO1 200843Z 24016KT 21/07 A3004 RMK A01 T02050066  RH  040%=      5-min Rain = 0
KGO1 200844Z 24014KT 21/07 A3004 RMK A01 T02060066  RH  040%=      5-min Rain = 0
KGO1 200845Z 24014KT 20/07 A3004 RMK A01 T02040066  RH  041%=      5-min Rain = 0
KGO1 200846Z 24014KT 20/07 A3004 RMK A01 T02030066  RH  041%=      5-min Rain = 0
KGO1 200847Z 24014KT 20/07 A3004 RMK A01 T02020066  RH  041%=      5-min Rain = 0
KGO1 200848Z 24015KT 20/07 A3004 RMK A01 T02020067  RH  041%=      5-min Rain = 0
KGO1 200849Z 24014KT 20/07 A3004 RMK A01 T02020067  RH  041%=      5-min Rain = 0
KGO1 200850Z 24013KT 20/07 A3004 RMK A01 T02020067  RH  041%=      5-min Rain = 0
KGO1 200851Z 24013KT 20/07 A3004 RMK A01 T02010066  RH  042%=      5-min Rain = 0
KGO1 200852Z 24014KT 20/07 A3004 RMK A01 T02000066  RH  042%=      5-min Rain = 0
KGO1 200853Z 24015KT 20/07 A3004 RMK A01 T02000066  RH  042%=      5-min Rain = 0
KGO1 200854Z 24015KT 20/07 A3004 RMK A01 T02000066  RH  042%=      5-min Rain = 0
KGO1 200855Z 24016KT 20/07 A3004 RMK A01 T02000066  RH  042%=      5-min Rain = 0
KGO1 200856Z 24017KT 20/07 A3004 RMK A01 T02010066  RH  041%=      5-min Rain = 0
KGO1 200857Z 23016KT 20/07 A3004 RMK A01 T02020066  RH  041%=      5-min Rain = 0
KGO1 200858Z 24015KT 20/07 A3004 RMK A01 T02020066  RH  041%=      5-min Rain = 0
KGO1 200859Z 24016KT 20/07 A3004 RMK A01 T02010066  RH  041%=      5-min Rain = 0
KGO1 200900Z 24015KT 20/07 A3004 RMK A01 T02010066  RH  041%=      5-min Rain = 0
KGO1 200901Z 24016KT 20/07 A3003 RMK A01 T02000066  RH  042%=      5-min Rain = 0
KGO1 200902Z 24017KT 20/07 A3003 RMK A01 T02010067  RH  042%=      5-min Rain = 0
KGO1 200903Z 24014KT 20/07 A3003 RMK A01 T02020066  RH  041%=      5-min Rain = 0
KGO1 200904Z 23015KT 20/07 A3003 RMK A01 T02010066  RH  042%=      5-min Rain = 0
KGO1 200905Z 24015KT 20/07 A3003 RMK A01 T02000067  RH  042%=      5-min Rain = 0
KGO1 200906Z 24015KT 20/07 A3003 RMK A01 T01990067  RH  042%=      5-min Rain = 0
KGO1 200907Z 24015KT 20/07 A3003 RMK A01 T01980067  RH  042%=      5-min Rain = 0
KGO1 200908Z 24015KT 20/07 A3003 RMK A01 T01980067  RH  042%=      5-min Rain = 0
KGO1 200909Z 24015KT 20/07 A3003 RMK A01 T01980067  RH  042%=      5-min Rain = 0
KGO1 200910Z 24016KT 20/07 A3003 RMK A01 T01980067  RH  043%=      5-min Rain = 0
KGO1 200911Z 24016KT 20/07 A3003 RMK A01 T01980067  RH  043%=      5-min Rain = 0
KGO1 200912Z 24017KT 20/07 A3003 RMK A01 T01980068  RH  043%=      5-min Rain = 0
KGO1 200913Z 24015KT 20/07 A3003 RMK A01 T01990069  RH  043%=      5-min Rain = 0
KGO1 200914Z 24015KT 20/07 A3003 RMK A01 T02000068  RH  042%=      5-min Rain = 0
KGO1 200915Z 24015KT 20/07 A3003 RMK A01 T01990069  RH  043%=      5-min Rain = 0
KGO1 200916Z 24015KT 20/07 A3003 RMK A01 T01990069  RH  043%=      5-min Rain = 0
KGO1 200917Z 24014KT 20/07 A3003 RMK A01 T01980069  RH  043%=      5-min Rain = 0
KGO1 200918Z 24016KT 20/07 A3003 RMK A01 T01980069  RH  043%=      5-min Rain = 0
KGO1 200919Z 24015KT 20/07 A3003 RMK A01 T01970069  RH  043%=      5-min Rain = 0
KGO1 200920Z 24014KT 20/07 A3003 RMK A01 T01970069  RH  043%=      5-min Rain = 0
KGO1 200921Z 24015KT 20/07 A3003 RMK A01 T01960069  RH  043%=      5-min Rain = 0
KGO1 200922Z 24013KT 20/07 A3003 RMK A01 T01960069  RH  043%=      5-min Rain = 0
KGO1 200923Z 24016KT 20/07 A3003 RMK A01 T01950068  RH  043%=      5-min Rain = 0
KGO1 200924Z 24016KT 20/07 A3002 RMK A01 T01960068  RH  043%=      5-min Rain = 0
KGO1 200925Z 24018KT 20/07 A3002 RMK A01 T01970068  RH  043%=      5-min Rain = 0
KGO1 200926Z 23017KT 20/07 A3002 RMK A01 T01980067  RH  043%=      5-min Rain = 0
KGO1 200927Z 24016KT 20/07 A3002 RMK A01 T01990067  RH  042%=      5-min Rain = 0
KGO1 200928Z 24018KT 20/07 A3002 RMK A01 T01980067  RH  042%=      5-min Rain = 0
KGO1 200929Z 24018KT 20/07 A3002 RMK A01 T01980066  RH  042%=      5-min Rain = 0
KGO1 200930Z 24017KT 20/07 A3002 RMK A01 T01980066  RH  042%=      5-min Rain = 0
KGO1 200931Z 23016KT 20/07 A3003 RMK A01 T01980066  RH  042%=      5-min Rain = 0
KGO1 200932Z 24015KT 20/07 A3003 RMK A01 T01970065  RH  042%=      5-min Rain = 0
KGO1 200933Z 24016KT 20/07 A3003 RMK A01 T01960065  RH  043%=      5-min Rain = 0
KGO1 200934Z 24016KT 20/07 A3003 RMK A01 T01950065  RH  043%=      5-min Rain = 0
KGO1 200935Z 24015KT 20/07 A3003 RMK A01 T01950065  RH  043%=      5-min Rain = 0
KGO1 200936Z 24015KT 20/07 A3003 RMK A01 T01950065  RH  043%=      5-min Rain = 0
KGO1 200937Z 24015KT 19/06 A3003 RMK A01 T01940064  RH  043%=      5-min Rain = 0
KGO1 200938Z 24015KT 19/06 A3003 RMK A01 T01930064  RH  043%=      5-min Rain = 0
KGO1 200939Z 24014KT 19/06 A3003 RMK A01 T01930064  RH  043%=      5-min Rain = 0
KGO1 200940Z 24014KT 19/06 A3003 RMK A01 T01930064  RH  043%=      5-min Rain = 0
KGO1 200941Z 24016KT 19/06 A3003 RMK A01 T01920063  RH  043%=      5-min Rain = 0
KGO1 200942Z 24015KT 19/06 A3003 RMK A01 T01930064  RH  043%=      5-min Rain = 0
KGO1 200943Z 24016KT 19/06 A3003 RMK A01 T01930063  RH  043%=      5-min Rain = 0
KGO1 200944Z 24016KT 19/06 A3003 RMK A01 T01930063  RH  043%=      5-min Rain = 0
KGO1 200945Z 24016KT 19/06 A3003 RMK A01 T01930063  RH  043%=      5-min Rain = 0
KGO1 200946Z 24013KT 19/06 A3003 RMK A01 T01930063  RH  043%=      5-min Rain = 0
KGO1 200947Z 24015KT 19/06 A3003 RMK A01 T01930063  RH  043%=      5-min Rain = 0
KGO1 200948Z 24015KT 19/06 A3003 RMK A01 T01920063  RH  043%=      5-min Rain = 0
KGO1 200949Z 23015KT 19/06 A3003 RMK A01 T01920063  RH  043%=      5-min Rain = 0
KGO1 200950Z 23015KT 19/06 A3003 RMK A01 T01920063  RH  043%=      5-min Rain = 0
KGO1 200951Z 24015KT 19/06 A3003 RMK A01 T01910063  RH  043%=      5-min Rain = 0
KGO1 200952Z 24013KT 19/06 A3003 RMK A01 T01900063  RH  043%=      5-min Rain = 0
KGO1 200953Z 24014KT 19/06 A3003 RMK A01 T01890062  RH  044%=      5-min Rain = 0
KGO1 200954Z 24014KT 19/06 A3003 RMK A01 T01880063  RH  044%=      5-min Rain = 0
KGO1 200955Z 24014KT 19/06 A3003 RMK A01 T01870063  RH  044%=      5-min Rain = 0
KGO1 200956Z 24015KT 19/06 A3003 RMK A01 T01870063  RH  044%=      5-min Rain = 0
KGO1 200957Z 24013KT 19/06 A3003 RMK A01 T01870063  RH  044%=      5-min Rain = 0
KGO1 200958Z 24014KT 19/06 A3003 RMK A01 T01860063  RH  044%=      5-min Rain = 0
KGO1 200959Z 24015KT 19/06 A3003 RMK A01 T01860063  RH  045%=      5-min Rain = 0
KGO1 201000Z 24014KT 19/06 A3003 RMK A01 T01860063  RH  045%=      5-min Rain = 0
KGO1 201001Z 24015KT 19/06 A3003 RMK A01 T01860064  RH  045%=      5-min Rain = 0
KGO1 201002Z 24014KT 19/06 A3003 RMK A01 T01870064  RH  045%=      5-min Rain = 0
KGO1 201003Z 24014KT 19/06 A3003 RMK A01 T01870064  RH  045%=      5-min Rain = 0
KGO1 201004Z 24015KT 19/06 A3003 RMK A01 T01860064  RH  045%=      5-min Rain = 0
KGO1 201005Z 24014KT 19/06 A3003 RMK A01 T01850064  RH  045%=      5-min Rain = 0
KGO1 201006Z 24015KT 18/06 A3002 RMK A01 T01840064  RH  045%=      5-min Rain = 0
KGO1 201007Z 24014KT 19/06 A3002 RMK A01 T01850064  RH  045%=      5-min Rain = 0
KGO1 201008Z 24014KT 19/06 A3003 RMK A01 T01850064  RH  045%=      5-min Rain = 0
KGO1 201009Z 25015KT 18/06 A3003 RMK A01 T01840064  RH  045%=      5-min Rain = 0
KGO1 201010Z 24015KT 18/06 A3002 RMK A01 T01840064  RH  045%=      5-min Rain = 0
KGO1 201011Z 24015KT 18/06 A3003 RMK A01 T01840064  RH  045%=      5-min Rain = 0
KGO1 201012Z 24014KT 18/06 A3002 RMK A01 T01840064  RH  045%=      5-min Rain = 0
KGO1 201013Z 24014KT 18/06 A3003 RMK A01 T01840064  RH  046%=      5-min Rain = 0
KGO1 201014Z 24014KT 18/06 A3003 RMK A01 T01840064  RH  046%=      5-min Rain = 0
KGO1 201015Z 24014KT 18/06 A3003 RMK A01 T01830064  RH  046%=      5-min Rain = 0
KGO1 201016Z 24015KT 18/06 A3003 RMK A01 T01820064  RH  046%=      5-min Rain = 0
KGO1 201017Z 24015KT 18/06 A3003 RMK A01 T01830064  RH  046%=      5-min Rain = 0
KGO1 201018Z 24014KT 18/06 A3003 RMK A01 T01830064  RH  046%=      5-min Rain = 0
KGO1 201019Z 24015KT 18/06 A3003 RMK A01 T01840064  RH  045%=      5-min Rain = 0
KGO1 201020Z 24014KT 18/06 A3003 RMK A01 T01830063  RH  045%=      5-min Rain = 0
KGO1 201021Z 24013KT 18/06 A3003 RMK A01 T01830063  RH  045%=      5-min Rain = 0
KGO1 201022Z 24014KT 18/06 A3003 RMK A01 T01830063  RH  045%=      5-min Rain = 0
KGO1 201023Z 24014KT 18/06 A3003 RMK A01 T01820063  RH  046%=      5-min Rain = 0
KGO1 201024Z 24013KT 18/06 A3003 RMK A01 T01820063  RH  046%=      5-min Rain = 0
KGO1 201025Z 24014KT 18/06 A3003 RMK A01 T01810063  RH  046%=      5-min Rain = 0
KGO1 201026Z 24014KT 18/06 A3003 RMK A01 T01810062  RH  046%=      5-min Rain = 0
KGO1 201027Z 24013KT 18/06 A3003 RMK A01 T01820062  RH  046%=      5-min Rain = 0
KGO1 201028Z 24013KT 18/06 A3003 RMK A01 T01820062  RH  046%=      5-min Rain = 0
KGO1 201029Z 24014KT 18/06 A3003 RMK A01 T01810062  RH  046%=      5-min Rain = 0
KGO1 201030Z 24015KT 18/06 A3003 RMK A01 T01810062  RH  046%=      5-min Rain = 0
KGO1 201031Z 24013KT 18/06 A3003 RMK A01 T01820062  RH  045%=      5-min Rain = 0
KGO1 201032Z 24013KT 18/06 A3003 RMK A01 T01820062  RH  045%=      5-min Rain = 0
KGO1 201033Z 24014KT 18/06 A3003 RMK A01 T01820062  RH  045%=      5-min Rain = 0
KGO1 201034Z 24013KT 18/06 A3003 RMK A01 T01820063  RH  046%=      5-min Rain = 0
KGO1 201035Z 24012KT 18/06 A3003 RMK A01 T01810062  RH  046%=      5-min Rain = 0
KGO1 201036Z 24012KT 18/06 A3003 RMK A01 T01800062  RH  046%=      5-min Rain = 0
KGO1 201037Z 23013KT 18/06 A3003 RMK A01 T01790062  RH  046%=      5-min Rain = 0
KGO1 201038Z 23012KT 18/06 A3003 RMK A01 T01790062  RH  046%=      5-min Rain = 0
KGO1 201039Z 23012KT 18/06 A3003 RMK A01 T01790063  RH  046%=      5-min Rain = 0
KGO1 201040Z 23013KT 18/06 A3003 RMK A01 T01790063  RH  046%=      5-min Rain = 0
KGO1 201041Z 23013KT 18/06 A3003 RMK A01 T01790063  RH  046%=      5-min Rain = 0
KGO1 201042Z 23013KT 18/06 A3003 RMK A01 T01800063  RH  046%=      5-min Rain = 0
KGO1 201043Z 23014KT 18/06 A3003 RMK A01 T01800063  RH  046%=      5-min Rain = 0
KGO1 201044Z 23013KT 18/06 A3003 RMK A01 T01800063  RH  046%=      5-min Rain = 0
KGO1 201045Z 23013KT 18/06 A3003 RMK A01 T01800063  RH  046%=      5-min Rain = 0
KGO1 201046Z 23013KT 18/06 A3003 RMK A01 T01800063  RH  046%=      5-min Rain = 0
KGO1 201047Z 23013KT 18/06 A3003 RMK A01 T01790063  RH  046%=      5-min Rain = 0
KGO1 201048Z 23014KT 18/06 A3003 RMK A01 T01790063  RH  047%=      5-min Rain = 0
KGO1 201049Z 23011KT 18/06 A3003 RMK A01 T01800063  RH  046%=      5-min Rain = 0
KGO1 201050Z 23012KT 18/06 A3003 RMK A01 T01800063  RH  046%=      5-min Rain = 0
KGO1 201051Z 23012KT 18/06 A3003 RMK A01 T01800063  RH  046%=      5-min Rain = 0
KGO1 201052Z 23012KT 18/06 A3003 RMK A01 T01800063  RH  046%=      5-min Rain = 0
KGO1 201053Z 23011KT 18/06 A3003 RMK A01 T01800063  RH  046%=      5-min Rain = 0
KGO1 201054Z 23012KT 18/06 A3003 RMK A01 T01790062  RH  046%=      5-min Rain = 0
KGO1 201055Z 23012KT 18/06 A3003 RMK A01 T01780063  RH  047%=      5-min Rain = 0
KGO1 201056Z 23011KT 18/06 A3003 RMK A01 T01780062  RH  047%=      5-min Rain = 0
KGO1 201057Z 23012KT 18/06 A3003 RMK A01 T01780062  RH  047%=      5-min Rain = 0
KGO1 201058Z 23012KT 18/06 A3003 RMK A01 T01770062  RH  047%=      5-min Rain = 0
KGO1 201059Z 22013KT 18/06 A3003 RMK A01 T01770062  RH  047%=      5-min Rain = 0
KGO1 201100Z 23013KT 18/06 A3003 RMK A01 T01770062  RH  047%=      5-min Rain = 0
KGO1 201101Z 23013KT 18/06 A3003 RMK A01 T01770062  RH  047%=      5-min Rain = 0
KGO1 201102Z 23012KT 18/06 A3003 RMK A01 T01780062  RH  047%=      5-min Rain = 0
KGO1 201103Z 23012KT 18/06 A3003 RMK A01 T01780062  RH  046%=      5-min Rain = 0
KGO1 201104Z 23012KT 18/06 A3003 RMK A01 T01780062  RH  046%=      5-min Rain = 0
KGO1 201105Z 23012KT 18/06 A3003 RMK A01 T01780062  RH  046%=      5-min Rain = 0
KGO1 201106Z 23012KT 18/06 A3004 RMK A01 T01780062  RH  047%=      5-min Rain = 0
KGO1 201107Z 22012KT 18/06 A3004 RMK A01 T01770062  RH  047%=      5-min Rain = 0
KGO1 201108Z 23012KT 18/06 A3004 RMK A01 T01770062  RH  047%=      5-min Rain = 0
KGO1 201109Z 22011KT 18/06 A3004 RMK A01 T01760061  RH  047%=      5-min Rain = 0
KGO1 201110Z 23011KT 18/06 A3004 RMK A01 T01760061  RH  047%=      5-min Rain = 0
KGO1 201111Z 23011KT 18/06 A3004 RMK A01 T01750061  RH  047%=      5-min Rain = 0
KGO1 201112Z 23011KT 18/06 A3004 RMK A01 T01750061  RH  047%=      5-min Rain = 0
KGO1 201113Z 22011KT 18/06 A3004 RMK A01 T01750061  RH  047%=      5-min Rain = 0
KGO1 201114Z 22010KT 17/06 A3004 RMK A01 T01740061  RH  047%=      5-min Rain = 0
KGO1 201115Z 22010KT 17/06 A3004 RMK A01 T01740061  RH  047%=      5-min Rain = 0
KGO1 201116Z 22011KT 17/06 A3004 RMK A01 T01740061  RH  048%=      5-min Rain = 0
KGO1 201117Z 22010KT 17/06 A3004 RMK A01 T01730061  RH  048%=      5-min Rain = 0
KGO1 201118Z 22009KT 17/06 A3004 RMK A01 T01720061  RH  048%=      5-min Rain = 0
KGO1 201119Z 22009KT 17/06 A3004 RMK A01 T01710061  RH  048%=      5-min Rain = 0
KGO1 201120Z 22009KT 17/06 A3004 RMK A01 T01710061  RH  048%=      5-min Rain = 0
KGO1 201121Z 22008KT 17/06 A3004 RMK A01 T01700061  RH  048%=      5-min Rain = 0
KGO1 201122Z 22008KT 17/06 A3004 RMK A01 T01700061  RH  048%=      5-min Rain = 0
KGO1 201123Z 23008KT 17/06 A3004 RMK A01 T01690060  RH  049%=      5-min Rain = 0
KGO1 201124Z 23007KT 17/06 A3004 RMK A01 T01680060  RH  049%=      5-min Rain = 0
KGO1 201125Z 24007KT 17/06 A3004 RMK A01 T01660060  RH  049%=      5-min Rain = 0
KGO1 201126Z 24007KT 17/06 A3004 RMK A01 T01650060  RH  050%=      5-min Rain = 0
KGO1 201127Z 25007KT 16/06 A3004 RMK A01 T01640059  RH  050%=      5-min Rain = 0
KGO1 201128Z 25008KT 16/06 A3004 RMK A01 T01630059  RH  050%=      5-min Rain = 0
KGO1 201129Z 25008KT 16/06 A3004 RMK A01 T01600058  RH  051%=      5-min Rain = 0
KGO1 201130Z 26008KT 16/06 A3004 RMK A01 T01580058  RH  052%=      5-min Rain = 0
KGO1 201131Z 25009KT 16/06 A3004 RMK A01 T01550057  RH  052%=      5-min Rain = 0
KGO1 201132Z 25008KT 15/06 A3004 RMK A01 T01540058  RH  053%=      5-min Rain = 0
KGO1 201133Z 25009KT 15/06 A3004 RMK A01 T01520057  RH  053%=      5-min Rain = 0
KGO1 201134Z 24009KT 15/06 A3004 RMK A01 T01500057  RH  054%=      5-min Rain = 0
KGO1 201135Z 24009KT 15/06 A3004 RMK A01 T01480057  RH  054%=      5-min Rain = 0
KGO1 201136Z 25009KT 15/06 A3004 RMK A01 T01460055  RH  055%=      5-min Rain = 0
KGO1 201137Z 25009KT 14/06 A3004 RMK A01 T01430055  RH  055%=      5-min Rain = 0
KGO1 201138Z 25009KT 14/05 A3004 RMK A01 T01400053  RH  056%=      5-min Rain = 0
KGO1 201139Z 25010KT 14/05 A3004 RMK A01 T01380053  RH  057%=      5-min Rain = 0
KGO1 201140Z 24010KT 14/05 A3004 RMK A01 T01360054  RH  058%=      5-min Rain = 0
KGO1 201141Z 24010KT 13/05 A3004 RMK A01 T01340053  RH  058%=      5-min Rain = 0
KGO1 201142Z 24011KT 13/05 A3004 RMK A01 T01330053  RH  058%=      5-min Rain = 0
KGO1 201143Z 24010KT 13/05 A3004 RMK A01 T01320053  RH  059%=      5-min Rain = 0
KGO1 201144Z 24011KT 13/05 A3004 RMK A01 T01310053  RH  059%=      5-min Rain = 0
KGO1 201145Z 23010KT 13/05 A3004 RMK A01 T01300053  RH  059%=      5-min Rain = 0
KGO1 201146Z 23011KT 13/05 A3004 RMK A01 T01290052  RH  060%=      5-min Rain = 0
KGO1 201147Z 24011KT 13/05 A3004 RMK A01 T01280052  RH  060%=      5-min Rain = 0
KGO1 201148Z 24011KT 13/05 A3004 RMK A01 T01270053  RH  060%=      5-min Rain = 0
KGO1 201149Z 23010KT 13/05 A3004 RMK A01 T01270053  RH  061%=      5-min Rain = 0
KGO1 201150Z 23009KT 13/05 A3004 RMK A01 T01290054  RH  061%=      5-min Rain = 0
KGO1 201151Z 23010KT 13/06 A3004 RMK A01 T01300055  RH  060%=      5-min Rain = 0
KGO1 201152Z 23010KT 13/06 A3004 RMK A01 T01310055  RH  060%=      5-min Rain = 0
KGO1 201153Z 23010KT 13/06 A3004 RMK A01 T01320055  RH  060%=      5-min Rain = 0
KGO1 201154Z 23010KT 13/06 A3004 RMK A01 T01340057  RH  059%=      5-min Rain = 0
KGO1 201155Z 23010KT 14/06 A3004 RMK A01 T01370058  RH  059%=      5-min Rain = 0
KGO1 201156Z 23009KT 14/06 A3004 RMK A01 T01400060  RH  058%=      5-min Rain = 0
KGO1 201157Z 23009KT 14/06 A3004 RMK A01 T01430060  RH  057%=      5-min Rain = 0
KGO1 201158Z 23009KT 14/06 A3004 RMK A01 T01440060  RH  057%=      5-min Rain = 0
KGO1 201159Z 23009KT 15/06 A3004 RMK A01 T01450060  RH  057%=      5-min Rain = 0
KGO1 201200Z 23009KT 15/06 A3004 RMK A01 T01470060  RH  056%=      5-min Rain = 0
KGO1 201201Z 23009KT 15/06 A3004 RMK A01 T01470060  RH  056%=      5-min Rain = 0
KGO1 201202Z 24009KT 15/06 A3004 RMK A01 T01480060  RH  056%=      5-min Rain = 0
KGO1 201203Z 24010KT 15/06 A3004 RMK A01 T01490060  RH  055%=      5-min Rain = 0
KGO1 201204Z 23010KT 15/06 A3004 RMK A01 T01490060  RH  055%=      5-min Rain = 0
KGO1 201205Z 24010KT 15/06 A3004 RMK A01 T01490060  RH  055%=      5-min Rain = 0
KGO1 201206Z 24010KT 15/06 A3005 RMK A01 T01480059  RH  055%=      5-min Rain = 0
KGO1 201207Z 24009KT 15/06 A3004 RMK A01 T01470059  RH  056%=      5-min Rain = 0
KGO1 201208Z 24008KT 15/06 A3004 RMK A01 T01460059  RH  056%=      5-min Rain = 0
KGO1 201209Z 24008KT 15/06 A3004 RMK A01 T01450058  RH  056%=      5-min Rain = 0
KGO1 201210Z 24008KT 14/06 A3005 RMK A01 T01440058  RH  056%=      5-min Rain = 0
KGO1 201211Z 24007KT 14/06 A3005 RMK A01 T01430058  RH  056%=      5-min Rain = 0
KGO1 201212Z 24007KT 14/06 A3005 RMK A01 T01420057  RH  057%=      5-min Rain = 0
KGO1 201213Z 24007KT 14/06 A3005 RMK A01 T01400057  RH  057%=      5-min Rain = 0
KGO1 201214Z 24007KT 14/06 A3005 RMK A01 T01390057  RH  057%=      5-min Rain = 0
KGO1 201215Z 24007KT 14/06 A3005 RMK A01 T01380056  RH  058%=      5-min Rain = 0
KGO1 201216Z 24007KT 14/06 A3005 RMK A01 T01370056  RH  058%=      5-min Rain = 0
KGO1 201217Z 24007KT 14/06 A3005 RMK A01 T01360056  RH  058%=      5-min Rain = 0
KGO1 201218Z 24007KT 14/06 A3005 RMK A01 T01350056  RH  059%=      5-min Rain = 0
KGO1 201219Z 23007KT 14/06 A3005 RMK A01 T01350057  RH  059%=      5-min Rain = 0
KGO1 201220Z 23007KT 14/06 A3005 RMK A01 T01350056  RH  059%=      5-min Rain = 0
KGO1 201221Z 23007KT 14/06 A3005 RMK A01 T01350056  RH  059%=      5-min Rain = 0
KGO1 201222Z 22007KT 14/06 A3005 RMK A01 T01350056  RH  059%=      5-min Rain = 0
KGO1 201223Z 22007KT 14/06 A3005 RMK A01 T01350056  RH  059%=      5-min Rain = 0
KGO1 201224Z 22008KT 14/06 A3005 RMK A01 T01350057  RH  059%=      5-min Rain = 0
KGO1 201225Z 22008KT 14/06 A3005 RMK A01 T01360057  RH  059%=      5-min Rain = 0
KGO1 201226Z 22009KT 14/06 A3005 RMK A01 T01370058  RH  059%=      5-min Rain = 0
KGO1 201227Z 23008KT 14/06 A3005 RMK A01 T01390059  RH  059%=      5-min Rain = 0
KGO1 201228Z 22009KT 14/06 A3005 RMK A01 T01400060  RH  058%=      5-min Rain = 0
KGO1 201229Z 23009KT 14/06 A3005 RMK A01 T01410060  RH  058%=      5-min Rain = 0
KGO1 201230Z 23008KT 14/06 A3005 RMK A01 T01420060  RH  058%=      5-min Rain = 0
KGO1 201231Z 23008KT 14/06 A3005 RMK A01 T01430060  RH  057%=      5-min Rain = 0
KGO1 201232Z 23008KT 14/06 A3005 RMK A01 T01430060  RH  057%=      5-min Rain = 0
KGO1 201233Z 24008KT 14/06 A3005 RMK A01 T01420059  RH  057%=      5-min Rain = 0
KGO1 201234Z 24008KT 14/06 A3005 RMK A01 T01410059  RH  058%=      5-min Rain = 0
KGO1 201235Z 24008KT 14/06 A3005 RMK A01 T01400059  RH  058%=      5-min Rain = 0
KGO1 201236Z 24008KT 14/06 A3005 RMK A01 T01390059  RH  058%=      5-min Rain = 0
KGO1 201237Z 24008KT 14/06 A3005 RMK A01 T01390059  RH  058%=      5-min Rain = 0
KGO1 201238Z 24008KT 14/06 A3005 RMK A01 T01380059  RH  059%=      5-min Rain = 0
KGO1 201239Z 24009KT 14/06 A3005 RMK A01 T01360058  RH  059%=      5-min Rain = 0
KGO1 201240Z 24009KT 14/06 A3005 RMK A01 T01350058  RH  060%=      5-min Rain = 0
KGO1 201241Z 25009KT 13/06 A3005 RMK A01 T01340058  RH  060%=      5-min Rain = 0
KGO1 201242Z 25010KT 13/06 A3005 RMK A01 T01340058  RH  060%=      5-min Rain = 0
KGO1 201243Z 25009KT 13/06 A3005 RMK A01 T01340058  RH  060%=      5-min Rain = 0
KGO1 201244Z 25009KT 13/06 A3005 RMK A01 T01340058  RH  060%=      5-min Rain = 0
KGO1 201245Z 25009KT 13/06 A3005 RMK A01 T01340058  RH  060%=      5-min Rain = 0
KGO1 201246Z 25010KT 13/06 A3005 RMK A01 T01330058  RH  060%=      5-min Rain = 0
KGO1 201247Z 25010KT 13/06 A3005 RMK A01 T01330058  RH  060%=      5-min Rain = 0
KGO1 201248Z 25011KT 13/06 A3006 RMK A01 T01330058  RH  060%=      5-min Rain = 0
KGO1 201249Z 25011KT 13/06 A3006 RMK A01 T01340058  RH  060%=      5-min Rain = 0
KGO1 201250Z 25011KT 14/06 A3006 RMK A01 T01350059  RH  060%=      5-min Rain = 0
KGO1 201251Z 25011KT 14/06 A3005 RMK A01 T01370059  RH  059%=      5-min Rain = 0
KGO1 201252Z 26011KT 14/06 A3005 RMK A01 T01380059  RH  059%=      5-min Rain = 0
KGO1 201253Z 26011KT 14/06 A3005 RMK A01 T01380059  RH  059%=      5-min Rain = 0
KGO1 201254Z 26011KT 14/06 A3005 RMK A01 T01380059  RH  059%=      5-min Rain = 0
KGO1 201255Z 26011KT 14/06 A3005 RMK A01 T01380059  RH  059%=      5-min Rain = 0
KGO1 201256Z 26012KT 14/06 A3005 RMK A01 T01370058  RH  059%=      5-min Rain = 0
KGO1 201257Z 26012KT 14/06 A3005 RMK A01 T01370059  RH  059%=      5-min Rain = 0
KGO1 201258Z 26011KT 14/06 A3005 RMK A01 T01370058  RH  059%=      5-min Rain = 0
KGO1 201259Z 26012KT 14/06 A3005 RMK A01 T01380059  RH  059%=      5-min Rain = 0
KGO1 201300Z 26012KT 14/06 A3005 RMK A01 T01390059  RH  059%=      5-min Rain = 0
KGO1 201301Z 25013KT 14/06 A3005 RMK A01 T01390059  RH  058%=      5-min Rain = 0
KGO1 201302Z 25013KT 14/06 A3005 RMK A01 T01390059  RH  058%=      5-min Rain = 0
KGO1 201303Z 25013KT 14/06 A3005 RMK A01 T01390058  RH  058%=      5-min Rain = 0
KGO1 201304Z 26013KT 14/06 A3005 RMK A01 T01390058  RH  058%=      5-min Rain = 0
KGO1 201305Z 26013KT 14/06 A3005 RMK A01 T01390058  RH  058%=      5-min Rain = 0
KGO1 201306Z 26013KT 14/06 A3005 RMK A01 T01390058  RH  058%=      5-min Rain = 0
KGO1 201307Z 26013KT 14/06 A3005 RMK A01 T01390058  RH  058%=      5-min Rain = 0
KGO1 201308Z 26013KT 14/06 A3005 RMK A01 T01390058  RH  058%=      5-min Rain = 0
KGO1 201309Z 26013KT 14/06 A3005 RMK A01 T01390058  RH  058%=      5-min Rain = 0
KGO1 201310Z 26014KT 14/06 A3006 RMK A01 T01390058  RH  058%=      5-min Rain = 0
KGO1 201311Z 26012KT 14/06 A3006 RMK A01 T01390058  RH  058%=      5-min Rain = 0
KGO1 201312Z 26012KT 14/06 A3006 RMK A01 T01380058  RH  058%=      5-min Rain = 0
KGO1 201313Z 26012KT 14/06 A3006 RMK A01 T01390058  RH  058%=      5-min Rain = 0
KGO1 201314Z 26012KT 14/06 A3006 RMK A01 T01390057  RH  058%=      5-min Rain = 0
KGO1 201315Z 26012KT 14/06 A3006 RMK A01 T01400058  RH  058%=      5-min Rain = 0
KGO1 201316Z 26011KT 14/06 A3006 RMK A01 T01400058  RH  058%=      5-min Rain = 0
KGO1 201317Z 27011KT 14/06 A3006 RMK A01 T01390058  RH  058%=      5-min Rain = 0
KGO1 201318Z 27010KT 14/06 A3006 RMK A01 T01390058  RH  058%=      5-min Rain = 0
KGO1 201319Z 27010KT 14/06 A3006 RMK A01 T01390058  RH  058%=      5-min Rain = 0
KGO1 201320Z 27010KT 14/06 A3006 RMK A01 T01390058  RH  058%=      5-min Rain = 0
KGO1 201321Z 27010KT 14/06 A3006 RMK A01 T01390058  RH  058%=      5-min Rain = 0
KGO1 201322Z 27010KT 14/06 A3006 RMK A01 T01400058  RH  058%=      5-min Rain = 0
KGO1 201323Z 27010KT 14/06 A3006 RMK A01 T01400058  RH  058%=      5-min Rain = 0
KGO1 201324Z 27011KT 14/06 A3006 RMK A01 T01410058  RH  057%=      5-min Rain = 0
KGO1 201325Z 27011KT 14/06 A3006 RMK A01 T01430058  RH  057%=      5-min Rain = 0
KGO1 201326Z 27011KT 14/06 A3007 RMK A01 T01430058  RH  057%=      5-min Rain = 0
KGO1 201327Z 27011KT 14/06 A3007 RMK A01 T01430058  RH  057%=      5-min Rain = 0
KGO1 201328Z 27011KT 14/06 A3007 RMK A01 T01430058  RH  057%=      5-min Rain = 0
KGO1 201329Z 27011KT 14/06 A3006 RMK A01 T01430059  RH  057%=      5-min Rain = 0
KGO1 201330Z 28011KT 14/06 A3006 RMK A01 T01430059  RH  057%=      5-min Rain = 0
KGO1 201331Z 27011KT 14/06 A3006 RMK A01 T01420059  RH  057%=      5-min Rain = 0
KGO1 201332Z 28010KT 14/06 A3007 RMK A01 T01410059  RH  058%=      5-min Rain = 0
KGO1 201333Z 28011KT 14/06 A3007 RMK A01 T01410060  RH  058%=      5-min Rain = 0
KGO1 201334Z 27011KT 14/06 A3007 RMK A01 T01400059  RH  058%=      5-min Rain = 0
KGO1 201335Z 27011KT 14/06 A3007 RMK A01 T01400060  RH  058%=      5-min Rain = 0
KGO1 201336Z 27012KT 14/06 A3007 RMK A01 T01390059  RH  059%=      5-min Rain = 0
KGO1 201337Z 27012KT 14/06 A3007 RMK A01 T01400059  RH  058%=      5-min Rain = 0
KGO1 201338Z 27013KT 14/06 A3007 RMK A01 T01400059  RH  058%=      5-min Rain = 0
KGO1 201339Z 27012KT 14/06 A3007 RMK A01 T01410059  RH  058%=      5-min Rain = 0
KGO1 201340Z 27012KT 14/06 A3007 RMK A01 T01430060  RH  057%=      5-min Rain = 0
KGO1 201341Z 27012KT 14/06 A3007 RMK A01 T01440059  RH  057%=      5-min Rain = 0
KGO1 201342Z 27012KT 15/06 A3007 RMK A01 T01460059  RH  056%=      5-min Rain = 0
KGO1 201343Z 27012KT 15/06 A3007 RMK A01 T01470059  RH  056%=      5-min Rain = 0
KGO1 201344Z 27011KT 15/06 A3007 RMK A01 T01490059  RH  055%=      5-min Rain = 0
KGO1 201345Z 28011KT 15/06 A3007 RMK A01 T01500058  RH  054%=      5-min Rain = 0
KGO1 201346Z 27011KT 15/06 A3007 RMK A01 T01520058  RH  053%=      5-min Rain = 0
KGO1 201347Z 27012KT 15/06 A3007 RMK A01 T01530057  RH  053%=      5-min Rain = 0
KGO1 201348Z 27013KT 15/06 A3007 RMK A01 T01540056  RH  052%=      5-min Rain = 0
KGO1 201349Z 27014KT 15/05 A3007 RMK A01 T01540054  RH  051%=      5-min Rain = 0
KGO1 201350Z 26014KT 16/06 A3007 RMK A01 T01550055  RH  051%=      5-min Rain = 0
KGO1 201351Z 27013KT 16/05 A3007 RMK A01 T01550054  RH  051%=      5-min Rain = 0
KGO1 201352Z 27011KT 16/06 A3007 RMK A01 T01560055  RH  051%=      5-min Rain = 0
KGO1 201353Z 28012KT 16/05 A3007 RMK A01 T01570053  RH  050%=      5-min Rain = 0
KGO1 201354Z 29013KT 16/05 A3007 RMK A01 T01580050  RH  049%=      5-min Rain = 0
KGO1 201355Z 28014KT 16/05 A3007 RMK A01 T01600048  RH  047%=      5-min Rain = 0
KGO1 201356Z 28014KT 16/05 A3007 RMK A01 T01610047  RH  047%=      5-min Rain = 0
KGO1 201357Z 27013KT 16/05 A3007 RMK A01 T01610047  RH  047%=      5-min Rain = 0
KGO1 201358Z 27012KT 16/05 A3007 RMK A01 T01610045  RH  046%=      5-min Rain = 0
KGO1 201359Z 27013KT 16/04 A3007 RMK A01 T01610043  RH  045%=      5-min Rain = 0
KGO1 201400Z 27015KT 16/04 A3007 RMK A01 T01630044  RH  045%=      5-min Rain = 0
KGO1 201401Z 27014KT 16/04 A3007 RMK A01 T01640041  RH  044%=      5-min Rain = 0
KGO1 201402Z 27014KT 16/04 A3007 RMK A01 T01640040  RH  044%=      5-min Rain = 0
KGO1 201403Z 27014KT 17/04 A3007 RMK A01 T01650040  RH  043%=      5-min Rain = 0
KGO1 201404Z 26014KT 17/04 A3007 RMK A01 T01650039  RH  043%=      5-min Rain = 0
KGO1 201405Z 26014KT 17/04 A3007 RMK A01 T01660039  RH  043%=      5-min Rain = 0
KGO1 201406Z 27014KT 17/04 A3007 RMK A01 T01670035  RH  041%=      5-min Rain = 0
KGO1 201407Z 28013KT 17/03 A3007 RMK A01 T01690032  RH  040%=      5-min Rain = 0
KGO1 201408Z 28013KT 17/03 A3007 RMK A01 T01700028  RH  039%=      5-min Rain = 0
KGO1 201409Z 27012KT 17/03 A3007 RMK A01 T01700028  RH  038%=      5-min Rain = 0
KGO1 201410Z 27014KT 17/03 A3007 RMK A01 T01710025  RH  038%=      5-min Rain = 0
KGO1 201411Z 27013KT 17/02 A3007 RMK A01 T01720021  RH  036%=      5-min Rain = 0
KGO1 201412Z 27014KT 17/02 A3007 RMK A01 T01720020  RH  036%=      5-min Rain = 0
KGO1 201413Z 27013KT 17/02 A3007 RMK A01 T01730021  RH  036%=      5-min Rain = 0
KGO1 201414Z 27014KT 17/02 A3007 RMK A01 T01730021  RH  036%=      5-min Rain = 0
KGO1 201415Z 27013KT 17/02 A3008 RMK A01 T01740021  RH  036%=      5-min Rain = 0
KGO1 201416Z 27013KT 17/02 A3008 RMK A01 T01740022  RH  036%=      5-min Rain = 0
KGO1 201417Z 27014KT 17/02 A3007 RMK A01 T01740020  RH  035%=      5-min Rain = 0
KGO1 201418Z 27013KT 17/02 A3007 RMK A01 T01740017  RH  035%=      5-min Rain = 0
KGO1 201419Z 27012KT 18/02 A3007 RMK A01 T01750019  RH  035%=      5-min Rain = 0
KGO1 201420Z 27013KT 18/02 A3007 RMK A01 T01760021  RH  035%=      5-min Rain = 0
KGO1 201421Z 27014KT 18/02 A3007 RMK A01 T01760019  RH  035%=      5-min Rain = 0
KGO1 201422Z 27012KT 18/02 A3007 RMK A01 T01760019  RH  035%=      5-min Rain = 0
KGO1 201423Z 27013KT 18/02 A3007 RMK A01 T01770016  RH  034%=      5-min Rain = 0
KGO1 201424Z 27012KT 18/02 A3007 RMK A01 T01780017  RH  034%=      5-min Rain = 0
KGO1 201425Z 27011KT 18/02 A3007 RMK A01 T01800019  RH  034%=      5-min Rain = 0
KGO1 201426Z 27012KT 18/02 A3007 RMK A01 T01810019  RH  034%=      5-min Rain = 0
KGO1 201427Z 27013KT 18/02 A3007 RMK A01 T01830018  RH  033%=      5-min Rain = 0
KGO1 201428Z 28012KT 18/01 A3007 RMK A01 T01840013  RH  032%=      5-min Rain = 0
KGO1 201429Z 28012KT 19/02 A3007 RMK A01 T01850015  RH  032%=      5-min Rain = 0
KGO1 201430Z 28013KT 19/01 A3007 RMK A01 T01860012  RH  031%=      5-min Rain = 0
KGO1 201431Z 28012KT 19/01 A3007 RMK A01 T01860011  RH  031%=      5-min Rain = 0
KGO1 201432Z 28013KT 19/01 A3007 RMK A01 T01870013  RH  031%=      5-min Rain = 0
KGO1 201433Z 28012KT 19/01 A3007 RMK A01 T01880009  RH  030%=      5-min Rain = 0
KGO1 201434Z 28012KT 19/01 A3007 RMK A01 T01900009  RH  030%=      5-min Rain = 0
KGO1 201435Z 28013KT 19/01 A3007 RMK A01 T01920005  RH  029%=      5-min Rain = 0
KGO1 201436Z 28013KT 19/01 A3007 RMK A01 T01940006  RH  028%=      5-min Rain = 0
KGO1 201437Z 28014KT 20/01 A3007 RMK A01 T01950006  RH  028%=      5-min Rain = 0
KGO1 201438Z 28012KT 20/01 A3007 RMK A01 T01950005  RH  028%=      5-min Rain = 0
KGO1 201439Z 28013KT 19/00 A3007 RMK A01 T01940004  RH  028%=      5-min Rain = 0
KGO1 201440Z 28012KT 19/00 A3007 RMK A01 T01940002  RH  028%=      5-min Rain = 0
KGO1 201441Z 28011KT 20/00 A3007 RMK A01 T01950003  RH  028%=      5-min Rain = 0
KGO1 201442Z 28013KT 20/00 A3007 RMK A01 T01970002  RH  027%=      5-min Rain = 0
KGO1 201443Z 28011KT 20/M00 A3007 RMK A01 T01981001  RH  026%=      5-min Rain = 0
KGO1 201444Z 28013KT 20/00 A3007 RMK A01 T02000003  RH  027%=      5-min Rain = 0
KGO1 201445Z 28013KT 20/00 A3007 RMK A01 T020100-0  RH  026%=      5-min Rain = 0
KGO1 201446Z 28013KT 20/M00 A3007 RMK A01 T02021002  RH  025%=      5-min Rain = 0
KGO1 201447Z 28010KT 20/00 A3007 RMK A01 T02020002  RH  026%=      5-min Rain = 0
KGO1 201448Z 28012KT 20/M00 A3007 RMK A01 T02031001  RH  025%=      5-min Rain = 0
KGO1 201449Z 28010KT 21/M00 A3007 RMK A01 T02051003  RH  025%=      5-min Rain = 0
KGO1 201450Z 28013KT 21/M00 A3008 RMK A01 T02061002  RH  025%=      5-min Rain = 0
KGO1 201451Z 28014KT 21/M01 A3007 RMK A01 T02071008  RH  024%=      5-min Rain = 0
KGO1 201452Z 28013KT 21/M01 A3007 RMK A01 T02071012  RH  023%=      5-min Rain = 0
KGO1 201453Z 28010KT 21/M01 A3008 RMK A01 T02071009  RH  024%=      5-min Rain = 0
KGO1 201454Z 28012G17KT 21/M01 A3008 RMK A01 T02081007  RH  024%=      5-min Rain = 0
KGO1 201455Z 28014KT 21/M01 A3008 RMK A01 T02101013  RH  022%=      5-min Rain = 0
KGO1 201456Z 28011KT 21/M01 A3008 RMK A01 T02101010  RH  023%=      5-min Rain = 0
KGO1 201457Z 28011KT 21/M01 A3008 RMK A01 T02121009  RH  023%=      5-min Rain = 0
KGO1 201458Z 28012KT 21/M01 A3008 RMK A01 T02141014  RH  022%=      5-min Rain = 0
KGO1 201459Z 28013KT 22/M02 A3008 RMK A01 T02151016  RH  021%=      5-min Rain = 0
KGO1 201500Z 27012KT 22/M01 A3008 RMK A01 T02161014  RH  021%=      5-min Rain = 0
KGO1 201501Z 28013KT 22/M01 A3008 RMK A01 T02161014  RH  021%=      5-min Rain = 0
KGO1 201502Z 28010KT 22/M02 A3008 RMK A01 T02171015  RH  021%=      5-min Rain = 0
KGO1 201503Z 28013KT 22/M01 A3008 RMK A01 T02191014  RH  021%=      5-min Rain = 0
KGO1 201504Z 28014KT 22/M02 A3008 RMK A01 T02201016  RH  021%=      5-min Rain = 0
KGO1 201505Z 28014KT 22/M02 A3008 RMK A01 T02201018  RH  020%=      5-min Rain = 0
KGO1 201506Z 28013KT 22/M02 A3008 RMK A01 T02211021  RH  020%=      5-min Rain = 0
KGO1 201507Z 28015KT 22/M02 A3008 RMK A01 T02211019  RH  020%=      5-min Rain = 0
KGO1 201508Z 28016KT 22/M02 A3008 RMK A01 T02221021  RH  020%=      5-min Rain = 0
KGO1 201509Z 28014KT 22/M02 A3008 RMK A01 T02221023  RH  019%=      5-min Rain = 0
KGO1 201510Z 28014KT 22/M02 A3008 RMK A01 T02221019  RH  020%=      5-min Rain = 0
KGO1 201511Z 28013KT 22/M02 A3007 RMK A01 T02231020  RH  020%=      5-min Rain = 0
KGO1 201512Z 28010KT 22/M02 A3007 RMK A01 T02241018  RH  020%=      5-min Rain = 0
KGO1 201513Z 28012KT 23/M01 A3007 RMK A01 T02271014  RH  020%=      5-min Rain = 0
KGO1 201514Z 28014KT 23/M02 A3008 RMK A01 T02281019  RH  019%=      5-min Rain = 0
KGO1 201515Z 28015KT 23/M02 A3008 RMK A01 T02281020  RH  019%=      5-min Rain = 0
KGO1 201516Z 29015KT 23/M02 A3008 RMK A01 T02281019  RH  019%=      5-min Rain = 0
KGO1 201517Z 29014KT 23/M02 A3008 RMK A01 T02291019  RH  019%=      5-min Rain = 0
KGO1 201518Z 29013KT 23/M02 A3007 RMK A01 T02291021  RH  019%=      5-min Rain = 0
KGO1 201519Z 29012KT 23/M02 A3007 RMK A01 T02291020  RH  019%=      5-min Rain = 0
KGO1 201520Z 29013KT 23/M02 A3007 RMK A01 T02311024  RH  018%=      5-min Rain = 0
KGO1 201521Z 29012KT 23/M02 A3008 RMK A01 T02331022  RH  018%=      5-min Rain = 0
KGO1 201522Z 29011KT 24/M02 A3008 RMK A01 T02351022  RH  018%=      5-min Rain = 0
KGO1 201523Z 29012KT 24/M02 A3007 RMK A01 T02371021  RH  018%=      5-min Rain = 0
KGO1 201524Z 29014KT 24/M02 A3008 RMK A01 T02371024  RH  017%=      5-min Rain = 0
KGO1 201525Z 29013KT 24/M03 A3008 RMK A01 T02371028  RH  017%=      5-min Rain = 0
KGO1 201526Z 29012KT 24/M03 A3008 RMK A01 T02381025  RH  017%=      5-min Rain = 0
KGO1 201527Z 29014KT 24/M02 A3008 RMK A01 T02411024  RH  017%=      5-min Rain = 0
KGO1 201528Z 29012KT 24/M02 A3008 RMK A01 T02411023  RH  017%=      5-min Rain = 0
KGO1 201529Z 30013KT 24/M02 A3008 RMK A01 T02421021  RH  017%=      5-min Rain = 0
KGO1 201530Z 30010KT 24/M02 A3008 RMK A01 T02421021  RH  017%=      5-min Rain = 0
KGO1 201531Z 30011KT 24/M02 A3008 RMK A01 T02411019  RH  018%=      5-min Rain = 0
KGO1 201532Z 30011KT 24/M02 A3008 RMK A01 T02421018  RH  018%=      5-min Rain = 0
KGO1 201533Z 30012KT 24/M02 A3008 RMK A01 T02431019  RH  018%=      5-min Rain = 0
KGO1 201534Z 30012KT 24/M02 A3008 RMK A01 T02431020  RH  017%=      5-min Rain = 0
KGO1 201535Z 29011KT 24/M02 A3008 RMK A01 T02431017  RH  018%=      5-min Rain = 0
KGO1 201536Z 30012KT 25/M01 A3008 RMK A01 T02451014  RH  018%=      5-min Rain = 0
KGO1 201537Z 29011KT 25/M02 A3008 RMK A01 T02451017  RH  018%=      5-min Rain = 0
KGO1 201538Z 29014KT 25/M02 A3008 RMK A01 T02451023  RH  017%=      5-min Rain = 0
KGO1 201539Z 29014KT 25/M02 A3008 RMK A01 T02451024  RH  017%=      5-min Rain = 0
KGO1 201540Z 29013KT 24/M02 A3008 RMK A01 T02441022  RH  017%=      5-min Rain = 0
KGO1 201541Z 29011KT 25/M02 A3008 RMK A01 T02451023  RH  017%=      5-min Rain = 0
KGO1 201542Z 29012KT 25/M02 A3008 RMK A01 T02471023  RH  017%=      5-min Rain = 0
KGO1 201543Z 29012KT 25/M02 A3008 RMK A01 T02481024  RH  016%=      5-min Rain = 0
KGO1 201544Z 29012KT 25/M02 A3008 RMK A01 T02491020  RH  017%=      5-min Rain = 0
KGO1 201545Z 29013KT 25/M03 A3008 RMK A01 T02511026  RH  016%=      5-min Rain = 0
KGO1 201546Z 29011KT 25/M03 A3008 RMK A01 T02501031  RH  015%=      5-min Rain = 0
KGO1 201547Z 28010KT 25/M02 A3008 RMK A01 T02501023  RH  016%=      5-min Rain = 0
KGO1 201548Z 29010KT 25/M02 A3008 RMK A01 T02521021  RH  016%=      5-min Rain = 0
KGO1 201549Z 30011KT 26/M02 A3008 RMK A01 T02551020  RH  016%=      5-min Rain = 0
KGO1 201550Z 30010KT 26/M02 A3008 RMK A01 T02561021  RH  016%=      5-min Rain = 0
KGO1 201551Z 30011KT 26/M02 A3008 RMK A01 T02581017  RH  016%=      5-min Rain = 0
KGO1 201552Z 30014KT 26/M03 A3008 RMK A01 T02591029  RH  015%=      5-min Rain = 0
KGO1 201553Z 29014KT 26/M03 A3008 RMK A01 T02561031  RH  015%=      5-min Rain = 0
KGO1 201554Z 29012KT 26/M03 A3008 RMK A01 T02551028  RH  015%=      5-min Rain = 0
KGO1 201555Z 29013KT 26/M03 A3008 RMK A01 T02561026  RH  015%=      5-min Rain = 0
KGO1 201556Z 29013KT 26/M03 A3008 RMK A01 T02571028  RH  015%=      5-min Rain = 0
KGO1 201557Z 29011KT 26/M03 A3008 RMK A01 T02571027  RH  015%=      5-min Rain = 0
KGO1 201558Z 30012KT 26/M03 A3008 RMK A01 T02571028  RH  015%=      5-min Rain = 0
KGO1 201559Z 30012KT 26/M03 A3008 RMK A01 T02571027  RH  015%=      5-min Rain = 0
KGO1 201600Z 31012KT 26/M03 A3008 RMK A01 T02571027  RH  015%=      5-min Rain = 0
KGO1 201601Z 30013KT 26/M03 A3008 RMK A01 T02571025  RH  015%=      5-min Rain = 0
KGO1 201602Z 29012KT 26/M02 A3008 RMK A01 T02571023  RH  016%=      5-min Rain = 0
KGO1 201603Z 30013KT 26/M03 A3008 RMK A01 T02591025  RH  015%=      5-min Rain = 0
KGO1 201604Z 29014KT 26/M03 A3008 RMK A01 T02601025  RH  015%=      5-min Rain = 0
KGO1 201605Z 30012KT 26/M03 A3008 RMK A01 T02611028  RH  015%=      5-min Rain = 0
KGO1 201606Z 31011KT 26/M02 A3008 RMK A01 T02611022  RH  015%=      5-min Rain = 0
KGO1 201607Z 30011KT 26/M03 A3008 RMK A01 T02611028  RH  015%=      5-min Rain = 0
KGO1 201608Z 29010KT 26/M02 A3008 RMK A01 T02611023  RH  015%=      5-min Rain = 0
KGO1 201609Z 30009KT 27/M02 A3008 RMK A01 T02661016  RH  016%=      5-min Rain = 0
KGO1 201610Z 29010KT 27/M02 A3008 RMK A01 T02701019  RH  015%=      5-min Rain = 0
KGO1 201611Z 29013KT 27/M03 A3008 RMK A01 T02701027  RH  014%=      5-min Rain = 0
KGO1 201612Z 28012KT 27/M03 A3008 RMK A01 T02671028  RH  014%=      5-min Rain = 0
KGO1 201613Z 29011KT 27/M03 A3008 RMK A01 T02661026  RH  014%=      5-min Rain = 0
KGO1 201614Z 29012KT 27/M03 A3008 RMK A01 T02661026  RH  014%=      5-min Rain = 0
KGO1 201615Z 29012KT 27/M03 A3008 RMK A01 T02671028  RH  014%=      5-min Rain = 0
KGO1 201616Z 28012KT 27/M03 A3008 RMK A01 T02661029  RH  014%=      5-min Rain = 0
KGO1 201617Z 29012KT 27/M03 A3008 RMK A01 T02651026  RH  015%=      5-min Rain = 0
KGO1 201618Z 29011KT 26/M03 A3008 RMK A01 T02641030  RH  014%=      5-min Rain = 0
KGO1 201619Z 29013KT 26/M03 A3008 RMK A01 T02641027  RH  015%=      5-min Rain = 0
KGO1 201620Z 30010KT 26/M03 A3008 RMK A01 T02631028  RH  015%=      5-min Rain = 0
KGO1 201621Z 28010KT 26/M03 A3008 RMK A01 T02631028  RH  015%=      5-min Rain = 0
KGO1 201622Z 28010KT 26/M03 A3008 RMK A01 T02641027  RH  015%=      5-min Rain = 0
KGO1 201623Z 28012KT 27/M03 A3008 RMK A01 T02661027  RH  014%=      5-min Rain = 0
KGO1 201624Z 30010KT 27/M03 A3008 RMK A01 T02671025  RH  015%=      5-min Rain = 0
KGO1 201625Z 31010KT 27/M03 A3008 RMK A01 T02681025  RH  014%=      5-min Rain = 0
KGO1 201626Z 28009KT 27/M03 A3008 RMK A01 T02671026  RH  014%=      5-min Rain = 0
KGO1 201627Z 30009KT 27/M03 A3008 RMK A01 T02671025  RH  015%=      5-min Rain = 0
KGO1 201628Z 29011KT 27/M02 A3008 RMK A01 T02681022  RH  015%=      5-min Rain = 0
KGO1 201629Z 29010KT 27/M02 A3008 RMK A01 T02701023  RH  014%=      5-min Rain = 0
KGO1 201630Z 29012KT 27/M02 A3008 RMK A01 T02711023  RH  014%=      5-min Rain = 0
KGO1 201631Z 30010KT 27/M03 A3008 RMK A01 T02721028  RH  014%=      5-min Rain = 0
KGO1 201632Z 28011KT 27/M03 A3008 RMK A01 T02701026  RH  014%=      5-min Rain = 0
KGO1 201633Z 28008KT 27/M02 A3008 RMK A01 T02681022  RH  015%=      5-min Rain = 0
KGO1 201634Z 30009KT 27/M02 A3008 RMK A01 T02691024  RH  015%=      5-min Rain = 0
KGO1 201635Z 29011KT 27/M02 A3008 RMK A01 T02721019  RH  015%=      5-min Rain = 0
KGO1 201636Z 28009KT 28/M02 A3008 RMK A01 T02751018  RH  015%=      5-min Rain = 0
KGO1 201637Z 29010KT 28/M02 A3008 RMK A01 T02771021  RH  014%=      5-min Rain = 0
KGO1 201638Z 31010KT 28/M03 A3008 RMK A01 T02771027  RH  014%=      5-min Rain = 0
KGO1 201639Z 29011KT 28/M02 A3008 RMK A01 T02751023  RH  014%=      5-min Rain = 0
KGO1 201640Z 30010KT 28/M03 A3008 RMK A01 T02751026  RH  014%=      5-min Rain = 0
KGO1 201641Z 28008KT 28/M03 A3008 RMK A01 T02751025  RH  014%=      5-min Rain = 0
KGO1 201642Z 27010KT 28/M02 A3008 RMK A01 T02761022  RH  014%=      5-min Rain = 0
KGO1 201643Z 27011KT 28/M02 A3008 RMK A01 T02771023  RH  014%=      5-min Rain = 0
KGO1 201644Z 27010KT 28/M02 A3008 RMK A01 T02781024  RH  014%=      5-min Rain = 0
KGO1 201645Z 27009KT 28/M02 A3008 RMK A01 T02781023  RH  014%=      5-min Rain = 0
KGO1 201646Z 28012KT 28/M02 A3008 RMK A01 T02801020  RH  014%=      5-min Rain = 0
KGO1 201647Z 29009KT 28/M03 A3008 RMK A01 T02801026  RH  013%=      5-min Rain = 0
KGO1 201648Z 29011G16KT 28/M03 A3008 RMK A01 T02781026  RH  014%=      5-min Rain = 0
KGO1 201649Z 28011KT 28/M03 A3008 RMK A01 T02771026  RH  014%=      5-min Rain = 0
KGO1 201650Z 29009KT 28/M03 A3008 RMK A01 T02771028  RH  013%=      5-min Rain = 0
KGO1 201651Z 28008KT 28/M03 A3008 RMK A01 T02771026  RH  014%=      5-min Rain = 0
KGO1 201652Z 28007KT 28/M02 A3008 RMK A01 T02791023  RH  014%=      5-min Rain = 0
KGO1 201653Z 29009KT 28/M02 A3008 RMK A01 T02811019  RH  014%=      5-min Rain = 0
KGO1 201654Z 29010KT 29/M02 A3008 RMK A01 T02851019  RH  014%=      5-min Rain = 0
KGO1 201655Z 29011KT 29/M02 A3008 RMK A01 T02871023  RH  013%=      5-min Rain = 0
KGO1 201656Z 28010KT 29/M02 A3008 RMK A01 T02861021  RH  013%=      5-min Rain = 0
KGO1 201657Z 27009KT 29/M02 A3008 RMK A01 T02871019  RH  014%=      5-min Rain = 0
KGO1 201658Z 27008KT 29/M02 A3008 RMK A01 T02881024  RH  013%=      5-min Rain = 0
KGO1 201659Z 28009KT 29/M03 A3008 RMK A01 T02891025  RH  013%=      5-min Rain = 0
KGO1 201700Z 28009KT 29/M03 A3008 RMK A01 T02881025  RH  013%=      5-min Rain = 0
KGO1 201701Z 26007KT 29/M03 A3008 RMK A01 T02861027  RH  013%=      5-min Rain = 0
KGO1 201702Z 27004KT 28/M02 A3008 RMK A01 T02841023  RH  013%=      5-min Rain = 0
KGO1 201703Z 27008KT 29/M02 A3008 RMK A01 T02851022  RH  013%=      5-min Rain = 0
KGO1 201704Z 26008KT 29/M03 A3008 RMK A01 T02871026  RH  013%=      5-min Rain = 0
KGO1 201705Z 28008KT 29/M02 A3008 RMK A01 T02871023  RH  013%=      5-min Rain = 0
KGO1 201706Z 28007KT 29/M02 A3008 RMK A01 T02881018  RH  014%=      5-min Rain = 0
KGO1 201707Z 26011KT 29/M02 A3008 RMK A01 T02911019  RH  013%=      5-min Rain = 0
KGO1 201708Z 26008KT 29/M02 A3008 RMK A01 T02911021  RH  013%=      5-min Rain = 0
KGO1 201709Z 27008G13KT 29/M02 A3008 RMK A01 T02891019  RH  013%=      5-min Rain = 0
KGO1 201710Z 28012KT 29/M02 A3008 RMK A01 T02921023  RH  013%=      5-min Rain = 0
KGO1 201711Z 29009KT 29/M03 A3008 RMK A01 T02921026  RH  012%=      5-min Rain = 0
KGO1 201712Z 28009KT 29/M03 A3007 RMK A01 T02921025  RH  013%=      5-min Rain = 0
KGO1 201713Z 27010KT 29/M02 A3007 RMK A01 T02941017  RH  013%=      5-min Rain = 0
KGO1 201714Z 26009KT 30/M02 A3007 RMK A01 T02971020  RH  013%=      5-min Rain = 0
KGO1 201715Z 27007KT 30/M02 A3007 RMK A01 T02991017  RH  013%=      5-min Rain = 0
KGO1 201716Z 28005KT 30/M03 A3007 RMK A01 T02991029  RH  012%=      5-min Rain = 0
KGO1 201717Z 27007KT 29/M03 A3007 RMK A01 T02941026  RH  012%=      5-min Rain = 0
KGO1 201718Z 26010KT 29/M03 A3007 RMK A01 T02941025  RH  012%=      5-min Rain = 0
KGO1 201719Z 25010KT 30/M03 A3007 RMK A01 T02951026  RH  012%=      5-min Rain = 0
KGO1 201720Z 23010KT 30/M03 A3007 RMK A01 T02971030  RH  012%=      5-min Rain = 0
KGO1 201721Z 25009KT 30/M03 A3007 RMK A01 T02961033  RH  012%=      5-min Rain = 0
KGO1 201722Z 27009KT 29/M03 A3007 RMK A01 T02941029  RH  012%=      5-min Rain = 0
KGO1 201723Z 28011KT 29/M03 A3007 RMK A01 T02941028  RH  012%=      5-min Rain = 0
KGO1 201724Z 27011KT 30/M03 A3007 RMK A01 T02951026  RH  012%=      5-min Rain = 0
KGO1 201725Z 27009KT 30/M02 A3007 RMK A01 T02981022  RH  012%=      5-min Rain = 0
KGO1 201726Z 26008KT 30/M03 A3007 RMK A01 T02981028  RH  012%=      5-min Rain = 0
KGO1 201727Z 28009KT 30/M02 A3007 RMK A01 T02971021  RH  013%=      5-min Rain = 0
KGO1 201728Z 26007G13KT 30/M02 A3007 RMK A01 T02991022  RH  012%=      5-min Rain = 0
KGO1 201729Z 25011KT 30/M03 A3007 RMK A01 T03001027  RH  012%=      5-min Rain = 0
KGO1 201730Z 28010KT 30/M03 A3007 RMK A01 T02981026  RH  012%=      5-min Rain = 0
KGO1 201731Z 29006KT 30/M03 A3007 RMK A01 T03001027  RH  012%=      5-min Rain = 0
KGO1 201732Z 26004KT 30/M03 A3007 RMK A01 T03001028  RH  012%=      5-min Rain = 0
KGO1 201733Z 25009KT 30/M02 A3007 RMK A01 T02991019  RH  013%=      5-min Rain = 0
KGO1 201734Z 26009KT 30/M02 A3007 RMK A01 T03021024  RH  012%=      5-min Rain = 0
KGO1 201735Z 26010KT 30/M02 A3007 RMK A01 T03011017  RH  013%=      5-min Rain = 0
KGO1 201736Z 25008KT 30/M03 A3007 RMK A01 T03031033  RH  011%=      5-min Rain = 0
KGO1 201737Z 26009KT 30/M03 A3007 RMK A01 T03011025  RH  012%=      5-min Rain = 0
KGO1 201738Z 28008KT 30/M02 A3007 RMK A01 T03021021  RH  012%=      5-min Rain = 0
KGO1 201739Z 27008G13KT 31/M02 A3007 RMK A01 T03051024  RH  012%=      5-min Rain = 0
KGO1 201740Z 26013KT 30/M02 A3007 RMK A01 T03041023  RH  012%=      5-min Rain = 0
KGO1 201741Z 26010KT 30/M03 A3007 RMK A01 T03011025  RH  012%=      5-min Rain = 0
KGO1 201742Z 27008KT 30/M02 A3007 RMK A01 T03001017  RH  013%=      5-min Rain = 0
KGO1 201743Z 29008KT 30/M02 A3007 RMK A01 T03031020  RH  012%=      5-min Rain = 0
KGO1 201744Z 28007KT 31/M03 A3007 RMK A01 T03051025  RH  012%=      5-min Rain = 0
KGO1 201745Z 25010G15KT 30/M02 A3007 RMK A01 T03041022  RH  012%=      5-min Rain = 0
KGO1 201746Z 25010KT 31/M02 A3007 RMK A01 T03051019  RH  012%=      5-min Rain = 0
KGO1 201747Z 29008KT 31/M02 A3007 RMK A01 T03051020  RH  012%=      5-min Rain = 0
KGO1 201748Z 29008KT 31/M02 A3007 RMK A01 T03061023  RH  012%=      5-min Rain = 0
KGO1 201749Z 28010KT 31/M02 A3007 RMK A01 T03081021  RH  012%=      5-min Rain = 0
KGO1 201750Z 27008KT 31/M02 A3007 RMK A01 T03091020  RH  012%=      5-min Rain = 0
KGO1 201751Z 27011KT 31/M03 A3006 RMK A01 T03091026  RH  011%=      5-min Rain = 0
KGO1 201752Z 27012KT 31/M03 A3006 RMK A01 T03111025  RH  011%=      5-min Rain = 0
KGO1 201753Z 26010KT 31/M02 A3006 RMK A01 T03141023  RH  011%=      5-min Rain = 0
KGO1 201754Z 26010KT 31/M02 A3006 RMK A01 T03141024  RH  011%=      5-min Rain = 0
KGO1 201755Z 25011KT 31/M02 A3006 RMK A01 T03131019  RH  012%=      5-min Rain = 0
KGO1 201756Z 24008KT 31/M03 A3006 RMK A01 T03111028  RH  011%=      5-min Rain = 0
KGO1 201757Z 26011KT 31/M03 A3006 RMK A01 T03071027  RH  011%=      5-min Rain = 0
KGO1 201758Z 25012KT 31/M03 A3006 RMK A01 T03081032  RH  011%=      5-min Rain = 0
KGO1 201759Z 27008KT 31/M04 A3006 RMK A01 T03081038  RH  010%=      5-min Rain = 0
KGO1 201800Z 27008KT 31/M04 A3006 RMK A01 T03071035  RH  011%=      5-min Rain = 0
KGO1 201801Z 27012KT 31/M03 A3006 RMK A01 T03071030  RH  011%=      5-min Rain = 0
KGO1 201802Z 27013KT 31/M03 A3006 RMK A01 T03101028  RH  011%=      5-min Rain = 0
KGO1 201803Z 26013KT 31/M03 A3006 RMK A01 T03111033  RH  011%=      5-min Rain = 0
KGO1 201804Z 27012KT 31/M03 A3006 RMK A01 T03091033  RH  011%=      5-min Rain = 0
KGO1 201805Z 25008KT 31/M03 A3006 RMK A01 T03081030  RH  011%=      5-min Rain = 0
KGO1 201806Z 26009KT 31/M03 A3006 RMK A01 T03091026  RH  011%=      5-min Rain = 0
KGO1 201807Z 27012KT 31/M03 A3006 RMK A01 T03101030  RH  011%=      5-min Rain = 0
KGO1 201808Z 26012KT 31/M03 A3006 RMK A01 T03121030  RH  011%=      5-min Rain = 0
KGO1 201809Z 26011KT 31/M03 A3006 RMK A01 T03121029  RH  011%=      5-min Rain = 0
KGO1 201810Z 27010KT 31/M03 A3006 RMK A01 T03121029  RH  011%=      5-min Rain = 0
KGO1 201811Z 27012KT 32/M03 A3006 RMK A01 T03151027  RH  011%=      5-min Rain = 0
KGO1 201812Z 27012KT 32/M03 A3005 RMK A01 T03171033  RH  010%=      5-min Rain = 0
KGO1 201813Z 26014KT 31/M03 A3005 RMK A01 T03141031  RH  011%=      5-min Rain = 0
KGO1 201814Z 26012KT 31/M03 A3005 RMK A01 T03131029  RH  011%=      5-min Rain = 0
KGO1 201815Z 26011KT 31/M03 A3005 RMK A01 T03131027  RH  011%=      5-min Rain = 0
KGO1 201816Z 25011KT 31/M03 A3005 RMK A01 T03131032  RH  011%=      5-min Rain = 0
KGO1 201817Z 24008KT 31/M02 A3005 RMK A01 T03141024  RH  011%=      5-min Rain = 0
KGO1 201818Z 26010G17KT 32/M02 A3005 RMK A01 T03161021  RH  011%=      5-min Rain = 0
KGO1 201819Z 24010KT 32/M03 A3005 RMK A01 T03191025  RH  011%=      5-min Rain = 0
KGO1 201820Z 25009KT 32/M03 A3005 RMK A01 T03201026  RH  011%=      5-min Rain = 0
KGO1 201821Z 24012KT 32/M03 A3005 RMK A01 T03211028  RH  010%=      5-min Rain = 0
KGO1 201822Z 24011KT 32/M03 A3005 RMK A01 T03191032  RH  010%=      5-min Rain = 0
KGO1 201823Z 24013KT 32/M03 A3005 RMK A01 T03201028  RH  011%=      5-min Rain = 0
KGO1 201824Z 25010KT 32/M03 A3005 RMK A01 T03201033  RH  010%=      5-min Rain = 0
KGO1 201825Z 24010KT 32/M03 A3005 RMK A01 T03191027  RH  011%=      5-min Rain = 0
KGO1 201826Z 27012KT 32/M04 A3005 RMK A01 T03201035  RH  010%=      5-min Rain = 0
KGO1 201827Z 26011KT 32/M04 A3005 RMK A01 T03181036  RH  010%=      5-min Rain = 0
KGO1 201828Z 25009KT 32/M03 A3005 RMK A01 T03161034  RH  010%=      5-min Rain = 0
KGO1 201829Z 23008KT 32/M03 A3005 RMK A01 T03161032  RH  010%=      5-min Rain = 0
KGO1 201830Z 24009KT 32/M03 A3005 RMK A01 T03171028  RH  011%=      5-min Rain = 0
KGO1 201831Z 26007KT 32/M03 A3005 RMK A01 T03191027  RH  011%=      5-min Rain = 0
KGO1 201832Z 25011KT 32/M03 A3005 RMK A01 T03201027  RH  011%=      5-min Rain = 0
KGO1 201833Z 23011KT 32/M03 A3005 RMK A01 T03211031  RH  010%=      5-min Rain = 0
KGO1 201834Z 24011KT 32/M03 A3005 RMK A01 T03211026  RH  011%=      5-min Rain = 0
KGO1 201835Z 25012KT 32/M03 A3005 RMK A01 T03211032  RH  010%=      5-min Rain = 0
KGO1 201836Z 25010KT 32/M03 A3005 RMK A01 T03191029  RH  010%=      5-min Rain = 0
KGO1 201837Z 25009KT 32/M03 A3005 RMK A01 T03191034  RH  010%=      5-min Rain = 0
KGO1 201838Z 26010KT 32/M03 A3005 RMK A01 T03191030  RH  010%=      5-min Rain = 0
KGO1 201839Z 27010KT 32/M04 A3005 RMK A01 T03211042  RH  009%=      5-min Rain = 0
KGO1 201840Z 26007KT 32/M04 A3004 RMK A01 T03181043  RH  009%=      5-min Rain = 0
KGO1 201841Z 28008KT 32/M04 A3004 RMK A01 T03171040  RH  010%=      5-min Rain = 0
KGO1 201842Z 25011KT 32/M04 A3004 RMK A01 T03191035  RH  010%=      5-min Rain = 0
KGO1 201843Z 24011KT 32/M03 A3004 RMK A01 T03221033  RH  010%=      5-min Rain = 0
KGO1 201844Z 24008KT 32/M03 A3004 RMK A01 T03231032  RH  010%=      5-min Rain = 0
KGO1 201845Z 28009KT 33/M03 A3004 RMK A01 T03261033  RH  010%=      5-min Rain = 0
KGO1 201846Z 27014KT 33/M03 A3004 RMK A01 T03291033  RH  010%=      5-min Rain = 0
KGO1 201847Z 27014KT 33/M04 A3004 RMK A01 T03301039  RH  009%=      5-min Rain = 0
KGO1 201848Z 27014KT 33/M05 A3004 RMK A01 T03281046  RH  009%=      5-min Rain = 0
KGO1 201849Z 28015KT 33/M04 A3004 RMK A01 T03261042  RH  009%=      5-min Rain = 0
KGO1 201850Z 29013KT 33/M05 A3004 RMK A01 T03251045  RH  009%=      5-min Rain = 0
KGO1 201851Z 28012KT 32/M05 A3004 RMK A01 T03241046  RH  009%=      5-min Rain = 0
KGO1 201852Z 26011KT 33/M05 A3004 RMK A01 T03261045  RH  009%=      5-min Rain = 0
KGO1 201853Z 26011KT 33/M04 A3004 RMK A01 T03281043  RH  009%=      5-min Rain = 0
KGO1 201854Z 26010KT 33/M05 A3004 RMK A01 T03251048  RH  009%=      5-min Rain = 0
KGO1 201855Z 26009KT 32/M04 A3004 RMK A01 T03221044  RH  009%=      5-min Rain = 0
KGO1 201856Z 25010G17KT 32/M04 A3004 RMK A01 T03211041  RH  009%=      5-min Rain = 0
KGO1 201857Z 25015KT 32/M04 A3004 RMK A01 T03241040  RH  009%=      5-min Rain = 0
KGO1 201858Z 25011KT 33/M05 A3004 RMK A01 T03251046  RH  009%=      5-min Rain = 0
KGO1 201859Z 25008KT 33/M04 A3004 RMK A01 T03251040  RH  009%=      5-min Rain = 0
KGO1 201900Z 27010KT 32/M04 A3003 RMK A01 T03241041  RH  009%=      5-min Rain = 0
KGO1 201901Z 27011KT 32/M05 A3003 RMK A01 T03241046  RH  009%=      5-min Rain = 0
KGO1 201902Z 27008KT 32/M05 A3003 RMK A01 T03231045  RH  009%=      5-min Rain = 0
KGO1 201903Z 25010G16KT 32/M03 A3003 RMK A01 T03241032  RH  010%=      5-min Rain = 0
KGO1 201904Z 24013KT 33/M04 A3003 RMK A01 T03281039  RH  009%=      5-min Rain = 0
KGO1 201905Z 25009KT 33/M05 A3003 RMK A01 T03261052  RH  008%=      5-min Rain = 0
KGO1 201906Z 25008KT 32/M04 A3003 RMK A01 T03221043  RH  009%=      5-min Rain = 0
KGO1 201907Z 24010KT 32/M05 A3003 RMK A01 T03231046  RH  009%=      5-min Rain = 0
KGO1 201908Z 23009KT 32/M05 A3003 RMK A01 T03221047  RH  009%=      5-min Rain = 0
KGO1 201909Z 24006KT 32/M05 A3003 RMK A01 T03221049  RH  009%=      5-min Rain = 0
KGO1 201910Z 25006KT 32/M04 A3003 RMK A01 T03221042  RH  009%=      5-min Rain = 0
KGO1 201911Z 26006KT 32/M04 A3003 RMK A01 T03231042  RH  009%=      5-min Rain = 0
KGO1 201912Z 27006KT 32/M05 A3003 RMK A01 T03241048  RH  009%=      5-min Rain = 0
KGO1 201913Z 26007KT 32/M04 A3003 RMK A01 T03241040  RH  009%=      5-min Rain = 0
KGO1 201914Z 26014KT 33/M04 A3003 RMK A01 T03271039  RH  009%=      5-min Rain = 0
KGO1 201915Z 24014KT 33/M05 A3003 RMK A01 T03301048  RH  009%=      5-min Rain = 0
KGO1 201916Z 25014KT 33/M05 A3003 RMK A01 T03301049  RH  008%=      5-min Rain = 0
KGO1 201917Z 27012G17KT 33/M05 A3003 RMK A01 T03291052  RH  008%=      5-min Rain = 0
KGO1 201918Z 28010KT 33/M05 A3002 RMK A01 T03291051  RH  008%=      5-min Rain = 0
KGO1 201919Z 28011KT 33/M06 A3002 RMK A01 T03271058  RH  008%=      5-min Rain = 0
KGO1 201920Z 26008KT 33/M06 A3002 RMK A01 T03261057  RH  008%=      5-min Rain = 0
KGO1 201921Z 28009KT 33/M05 A3002 RMK A01 T03251050  RH  009%=      5-min Rain = 0
KGO1 201922Z 28012KT 33/M05 A3002 RMK A01 T03281047  RH  009%=      5-min Rain = 0
KGO1 201923Z 28007KT 33/M05 A3002 RMK A01 T03301047  RH  009%=      5-min Rain = 0
KGO1 201924Z 24010KT 33/M05 A3002 RMK A01 T03311045  RH  009%=      5-min Rain = 0
KGO1 201925Z 23011KT 33/M04 A3002 RMK A01 T03321035  RH  009%=      5-min Rain = 0
KGO1 201926Z 21011KT 34/M04 A3002 RMK A01 T03351042  RH  009%=      5-min Rain = 0
KGO1 201927Z 22010KT 33/M05 A3002 RMK A01 T03321046  RH  009%=      5-min Rain = 0
KGO1 201928Z 21014KT 33/M04 A3001 RMK A01 T03331036  RH  009%=      5-min Rain = 0
KGO1 201929Z 21013KT 33/M05 A3001 RMK A01 T03331048  RH  008%=      5-min Rain = 0
KGO1 201930Z 22013KT 33/M04 A3001 RMK A01 T03321038  RH  009%=      5-min Rain = 0
KGO1 201931Z 23011KT 33/M04 A3001 RMK A01 T03341038  RH  009%=      5-min Rain = 0
KGO1 201932Z 27009G17KT 34/M03 A3001 RMK A01 T03361030  RH  009%=      5-min Rain = 0
KGO1 201933Z 27014KT 34/M04 A3001 RMK A01 T03381038  RH  009%=      5-min Rain = 0
KGO1 201934Z 28017KT 34/M04 A3001 RMK A01 T03381039  RH  009%=      5-min Rain = 0
KGO1 201935Z 28014KT 34/M05 A3001 RMK A01 T03361047  RH  008%=      5-min Rain = 0
KGO1 201936Z 29014KT 33/M05 A3001 RMK A01 T03341046  RH  008%=      5-min Rain = 0
KGO1 201937Z 29019KT 33/M05 A3001 RMK A01 T03341046  RH  008%=      5-min Rain = 0
KGO1 201938Z 28018KT 33/M05 A3001 RMK A01 T03341048  RH  008%=      5-min Rain = 0
KGO1 201939Z 26019KT 33/M05 A3001 RMK A01 T03331047  RH  008%=      5-min Rain = 0
KGO1 201940Z 27013KT 33/M05 A3001 RMK A01 T03311047  RH  009%=      5-min Rain = 0
KGO1 201941Z 26012KT 33/M05 A3001 RMK A01 T03301046  RH  009%=      5-min Rain = 0
KGO1 201942Z 27014KT 33/M05 A3001 RMK A01 T03311045  RH  009%=      5-min Rain = 0
KGO1 201943Z 26012KT 33/M05 A3001 RMK A01 T03311045  RH  009%=      5-min Rain = 0
KGO1 201944Z 24012KT 33/M04 A3001 RMK A01 T03321036  RH  009%=      5-min Rain = 0
KGO1 201945Z 23013KT 34/M05 A3001 RMK A01 T03351047  RH  008%=      5-min Rain = 0
KGO1 201946Z 23015KT 33/M05 A3001 RMK A01 T03331045  RH  009%=      5-min Rain = 0
KGO1 201947Z 25014KT 33/M04 A3001 RMK A01 T03341043  RH  009%=      5-min Rain = 0
KGO1 201948Z 25015KT 33/M05 A30 RMK A01 T03331046  RH  008%=      5-min Rain = 0
KGO1 201949Z 25013G20KT 33/M05 A3001 RMK A01 T03331048  RH  008%=      5-min Rain = 0
KGO1 201950Z 25011KT 33/M05 A30 RMK A01 T03301051  RH  008%=      5-min Rain = 0
KGO1 201951Z 25015KT 33/M04 A30 RMK A01 T03321038  RH  009%=      5-min Rain = 0
KGO1 201952Z 24014KT 33/M05 A30 RMK A01 T03341047  RH  008%=      5-min Rain = 0
KGO1 201953Z 25020KT 34/M04 A30 RMK A01 T03351039  RH  009%=      5-min Rain = 0
KGO1 201954Z 26016KT 34/M04 A30 RMK A01 T03371044  RH  008%=      5-min Rain = 0
KGO1 201955Z 24015KT 34/M04 A30 RMK A01 T03361040  RH  009%=      5-min Rain = 0
KGO1 201956Z 26012KT 34/M04 A30 RMK A01 T03371044  RH  008%=      5-min Rain = 0
KGO1 201957Z 26015G23KT 34/M04 A2999 RMK A01 T03361042  RH  009%=      5-min Rain = 0
KGO1 201958Z 28012KT 34/M05 A30 RMK A01 T03371048  RH  008%=      5-min Rain = 0
KGO1 201959Z 25014G20KT 34/M04 A30 RMK A01 T03351041  RH  009%=      5-min Rain = 0
KGO1 202000Z 26017G23KT 34/M05 A30 RMK A01 T03351045  RH  008%=      5-min Rain = 0
KGO1 202001Z 26012KT 33/M05 A30 RMK A01 T03331047  RH  008%=      5-min Rain = 0
KGO1 202002Z 25014KT 33/M05 A30 RMK A01 T03311046  RH  009%=      5-min Rain = 0
KGO1 202003Z 27013KT 33/M04 A30 RMK A01 T03321042  RH  009%=      5-min Rain = 0
KGO1 202004Z 28012KT 33/M04 A30 RMK A01 T03341043  RH  009%=      5-min Rain = 0
KGO1 202005Z 27013KT 33/M04 A30 RMK A01 T03341043  RH  009%=      5-min Rain = 0
KGO1 202006Z 27013KT 33/M04 A30 RMK A01 T03341043  RH  009%=      5-min Rain = 0
KGO1 202007Z 27010KT 33/M04 A30 RMK A01 T03321044  RH  009%=      5-min Rain = 0
KGO1 202008Z 27008KT 33/M04 A30 RMK A01 T03311043  RH  009%=      5-min Rain = 0
KGO1 202009Z 26010KT 33/M04 A30 RMK A01 T03311039  RH  009%=      5-min Rain = 0
KGO1 202010Z 27015KT 33/M04 A30 RMK A01 T03331039  RH  009%=      5-min Rain = 0
KGO1 202011Z 26014KT 34/M03 A30 RMK A01 T03361034  RH  009%=      5-min Rain = 0
KGO1 202012Z 25014KT 34/M03 A30 RMK A01 T03401032  RH  009%=      5-min Rain = 0
KGO1 202013Z 24014KT 34/M04 A30 RMK A01 T03401042  RH  008%=      5-min Rain = 0
KGO1 202014Z 24016KT 34/M04 A2999 RMK A01 T03351041  RH  009%=      5-min Rain = 0
KGO1 202015Z 25016KT 34/M04 A2999 RMK A01 T03351038  RH  009%=      5-min Rain = 0
KGO1 202016Z 27011KT 34/M04 A2999 RMK A01 T03351036  RH  009%=      5-min Rain = 0
KGO1 202017Z 26011KT 34/M04 A2999 RMK A01 T03371040  RH  009%=      5-min Rain = 0
KGO1 202018Z 28015G20KT 34/M03 A2999 RMK A01 T03381032  RH  009%=      5-min Rain = 0
KGO1 202019Z 25013G22KT 34/M04 A2999 RMK A01 T03391037  RH  009%=      5-min Rain = 0
KGO1 202020Z 24019G24KT 34/M03 A2999 RMK A01 T03391034  RH  009%=      5-min Rain = 0
KGO1 202021Z 24017KT 34/M04 A2999 RMK A01 T03371040  RH  009%=      5-min Rain = 0
KGO1 202022Z 26014KT 34/M04 A2999 RMK A01 T03361038  RH  009%=      5-min Rain = 0
KGO1 202023Z 25011KT 33/M04 A2999 RMK A01 T03341043  RH  009%=      5-min Rain = 0
KGO1 202024Z 25010KT 33/M04 A2999 RMK A01 T03341037  RH  009%=      5-min Rain = 0
KGO1 202025Z 25008G14KT 34/M04 A2999 RMK A01 T03351038  RH  009%=      5-min Rain = 0
KGO1 202026Z 28014G20KT 34/M03 A2999 RMK A01 T03361032  RH  009%=      5-min Rain = 0
KGO1 202027Z 29016KT 34/M03 A2999 RMK A01 T03411030  RH  009%=      5-min Rain = 0
KGO1 202028Z 28015KT 34/M04 A2999 RMK A01 T03401038  RH  009%=      5-min Rain = 0
KGO1 202029Z 28012KT 34/M04 A2999 RMK A01 T03351038  RH  009%=      5-min Rain = 0
KGO1 202030Z 27012KT 34/M03 A2999 RMK A01 T03361030  RH  009%=      5-min Rain = 0
KGO1 202031Z 29011KT 34/M04 A2999 RMK A01 T03361041  RH  009%=      5-min Rain = 0
KGO1 202032Z 29011KT 33/M04 A2999 RMK A01 T03321038  RH  009%=      5-min Rain = 0
KGO1 202033Z 26009KT 33/M04 A2999 RMK A01 T03331036  RH  009%=      5-min Rain = 0
KGO1 202034Z 26011G18KT 33/M04 A2999 RMK A01 T03331037  RH  009%=      5-min Rain = 0
KGO1 202035Z 28016KT 33/M04 A2999 RMK A01 T03341038  RH  009%=      5-min Rain = 0
KGO1 202036Z 29010KT 33/M05 A2999 RMK A01 T03341047  RH  008%=      5-min Rain = 0
KGO1 202037Z 29012G17KT 34/M04 A2999 RMK A01 T03351038  RH  009%=      5-min Rain = 0
KGO1 202038Z 28014KT 34/M04 A2999 RMK A01 T03361043  RH  009%=      5-min Rain = 0
KGO1 202039Z 27017KT 34/M04 A2999 RMK A01 T03361040  RH  009%=      5-min Rain = 0
KGO1 202040Z 28018G23KT 34/M04 A2999 RMK A01 T03351043  RH  009%=      5-min Rain = 0
KGO1 202041Z 27019KT 33/M04 A2999 RMK A01 T03341039  RH  009%=      5-min Rain = 0
KGO1 202042Z 27017G22KT 34/M04 A2999 RMK A01 T03351039  RH  009%=      5-min Rain = 0
KGO1 202043Z 27015KT 33/M04 A2999 RMK A01 T03321044  RH  009%=      5-min Rain = 0
KGO1 202044Z 27014KT 33/M04 A2999 RMK A01 T03291041  RH  009%=      5-min Rain = 0
KGO1 202045Z 27015KT 33/M04 A2999 RMK A01 T03301037  RH  009%=      5-min Rain = 0
KGO1 202046Z 27015KT 33/M04 A2999 RMK A01 T03321038  RH  009%=      5-min Rain = 0
KGO1 202047Z 28016G21KT 33/M04 A2999 RMK A01 T03321036  RH  009%=      5-min Rain = 0
KGO1 202048Z 28016KT 33/M04 A2999 RMK A01 T03331037  RH  009%=      5-min Rain = 0
KGO1 202049Z 28013G21KT 33/M03 A2999 RMK A01 T03341033  RH  009%=      5-min Rain = 0
KGO1 202050Z 27017KT 34/M04 A2999 RMK A01 T03351038  RH  009%=      5-min Rain = 0
KGO1 202051Z 26016KT 34/M03 A2999 RMK A01 T03361032  RH  009%=      5-min Rain = 0
KGO1 202052Z 24016KT 34/M04 A2999 RMK A01 T03361035  RH  009%=      5-min Rain = 0
KGO1 202053Z 25012KT 33/M04 A2999 RMK A01 T03331040  RH  009%=      5-min Rain = 0
KGO1 202054Z 28013G18KT 33/M03 A2999 RMK A01 T03311032  RH  010%=      5-min Rain = 0
KGO1 202055Z 27013KT 34/M03 A2999 RMK A01 T03351034  RH  009%=      5-min Rain = 0
KGO1 202056Z 27015KT 34/M04 A2999 RMK A01 T03361036  RH  009%=      5-min Rain = 0
KGO1 202057Z 26020KT 34/M04 A2998 RMK A01 T03351036  RH  009%=      5-min Rain = 0
KGO1 202058Z 26017G22KT 33/M04 A2999 RMK A01 T03341035  RH  009%=      5-min Rain = 0
KGO1 202059Z 26015KT 34/M03 A2999 RMK A01 T03351033  RH  009%=      5-min Rain = 0
KGO1 202100Z 27017KT 34/M03 A2999 RMK A01 T03361033  RH  009%=      5-min Rain = 0
KGO1 202101Z 26016KT 34/M04 A2999 RMK A01 T03361039  RH  009%=      5-min Rain = 0
KGO1 202102Z 27015KT 33/M04 A2999 RMK A01 T03341044  RH  009%=      5-min Rain = 0
KGO1 202103Z 28015KT 33/M04 A2999 RMK A01 T03321042  RH  009%=      5-min Rain = 0
KGO1 202104Z 27016KT 33/M04 A2999 RMK A01 T03321044  RH  009%=      5-min Rain = 0
KGO1 202105Z 26015KT 33/M04 A2999 RMK A01 T03311041  RH  009%=      5-min Rain = 0
KGO1 202106Z 29011KT 33/M04 A2999 RMK A01 T03311044  RH  009%=      5-min Rain = 0
KGO1 202107Z 29009KT 33/M04 A2998 RMK A01 T03301043  RH  009%=      5-min Rain = 0
KGO1 202108Z 27017G22KT 33/M04 A2998 RMK A01 T03311037  RH  009%=      5-min Rain = 0
KGO1 202109Z 27019KT 33/M04 A2998 RMK A01 T03321043  RH  009%=      5-min Rain = 0
KGO1 202110Z 26019KT 33/M04 A2998 RMK A01 T03311042  RH  009%=      5-min Rain = 0
KGO1 202111Z 26015KT 33/M04 A2998 RMK A01 T03301040  RH  009%=      5-min Rain = 0
KGO1 202112Z 26011KT 33/M04 A2998 RMK A01 T03291043  RH  009%=      5-min Rain = 0
KGO1 202113Z 26015G21KT 33/M04 A2998 RMK A01 T03291041  RH  009%=      5-min Rain = 0
KGO1 202114Z 26017KT 33/M04 A2998 RMK A01 T03311039  RH  009%=      5-min Rain = 0
KGO1 202115Z 27016KT 33/M04 A2998 RMK A01 T03331043  RH  009%=      5-min Rain = 0
KGO1 202116Z 27019KT 33/M05 A2998 RMK A01 T03321046  RH  009%=      5-min Rain = 0
KGO1 202117Z 26017KT 33/M05 A2998 RMK A01 T03301047  RH  009%=      5-min Rain = 0
KGO1 202118Z 26014KT 33/M04 A2998 RMK A01 T03311042  RH  009%=      5-min Rain = 0
KGO1 202119Z 27017KT 33/M04 A2998 RMK A01 T03321041  RH  009%=      5-min Rain = 0
KGO1 202120Z 26016KT 33/M04 A2998 RMK A01 T03321043  RH  009%=      5-min Rain = 0
KGO1 202121Z 26015KT 33/M04 A2998 RMK A01 T03311042  RH  009%=      5-min Rain = 0
KGO1 202122Z 27015KT 33/M04 A2998 RMK A01 T03301044  RH  009%=      5-min Rain = 0
KGO1 202123Z 28016KT 33/M05 A2998 RMK A01 T03301047  RH  009%=      5-min Rain = 0
KGO1 202124Z 27016KT 33/M05 A2998 RMK A01 T03291045  RH  009%=      5-min Rain = 0
KGO1 202125Z 26015KT 33/M04 A2998 RMK A01 T03321039  RH  009%=      5-min Rain = 0
KGO1 202126Z 26013KT 33/M05 A2998 RMK A01 T03321046  RH  009%=      5-min Rain = 0
KGO1 202127Z 25010KT 33/M04 A2998 RMK A01 T03311041  RH  009%=      5-min Rain = 0
KGO1 202128Z 26015G20KT 33/M04 A2998 RMK A01 T03321037  RH  009%=      5-min Rain = 0
KGO1 202129Z 27019KT 33/M04 A2998 RMK A01 T03331040  RH  009%=      5-min Rain = 0
KGO1 202130Z 27021KT 33/M05 A2998 RMK A01 T03331045  RH  009%=      5-min Rain = 0
KGO1 202131Z 26016G21KT 33/M05 A2998 RMK A01 T03311045  RH  009%=      5-min Rain = 0
KGO1 202132Z 26012KT 33/M05 A2998 RMK A01 T03301045  RH  009%=      5-min Rain = 0
KGO1 202133Z 26012KT 33/M04 A2998 RMK A01 T03311040  RH  009%=      5-min Rain = 0
KGO1 202134Z 26012KT 33/M04 A2998 RMK A01 T03331043  RH  009%=      5-min Rain = 0
KGO1 202135Z 26016KT 33/M04 A2998 RMK A01 T03321044  RH  009%=      5-min Rain = 0
KGO1 202136Z 28014KT 33/M04 A2998 RMK A01 T03331043  RH  009%=      5-min Rain = 0
KGO1 202137Z 27014KT 33/M05 A2998 RMK A01 T03331050  RH  008%=      5-min Rain = 0
KGO1 202138Z 26015KT 33/M04 A2998 RMK A01 T03321044  RH  009%=      5-min Rain = 0
KGO1 202139Z 27018KT 33/M04 A2998 RMK A01 T03341042  RH  009%=      5-min Rain = 0
KGO1 202140Z 27020KT 33/M05 A2998 RMK A01 T03341047  RH  008%=      5-min Rain = 0
KGO1 202141Z 27020KT 33/M05 A2998 RMK A01 T03321050  RH  008%=      5-min Rain = 0
KGO1 202142Z 26017KT 33/M05 A2998 RMK A01 T03301046  RH  009%=      5-min Rain = 0
KGO1 202143Z 26016KT 33/M05 A2998 RMK A01 T03291048  RH  009%=      5-min Rain = 0
KGO1 202144Z 26015KT 33/M05 A2998 RMK A01 T03281048  RH  009%=      5-min Rain = 0
KGO1 202145Z 26012KT 33/M05 A2998 RMK A01 T03281048  RH  009%=      5-min Rain = 0
KGO1 202146Z 25011KT 33/M05 A2998 RMK A01 T03281045  RH  009%=      5-min Rain = 0
KGO1 202147Z 26009KT 33/M04 A2998 RMK A01 T03291042  RH  009%=      5-min Rain = 0
KGO1 202148Z 26010KT 33/M04 A2998 RMK A01 T03311042  RH  009%=      5-min Rain = 0
KGO1 202149Z 26014G20KT 33/M04 A2998 RMK A01 T03311043  RH  009%=      5-min Rain = 0
KGO1 202150Z 26016KT 33/M05 A2998 RMK A01 T03311048  RH  008%=      5-min Rain = 0
KGO1 202151Z 28013KT 33/M05 A2997 RMK A01 T03291049  RH  009%=      5-min Rain = 0
KGO1 202152Z 29014KT 33/M05 A2997 RMK A01 T03291047  RH  009%=      5-min Rain = 0
KGO1 202153Z 26014KT 33/M05 A2997 RMK A01 T03301047  RH  009%=      5-min Rain = 0
KGO1 202154Z 26016KT 33/M05 A2997 RMK A01 T03291047  RH  009%=      5-min Rain = 0
KGO1 202155Z 27013KT 33/M04 A2997 RMK A01 T03291042  RH  009%=      5-min Rain = 0
KGO1 202156Z 26013KT 33/M04 A2997 RMK A01 T03321037  RH  009%=      5-min Rain = 0
KGO1 202157Z 26012KT 33/M04 A2997 RMK A01 T03341041  RH  009%=      5-min Rain = 0
KGO1 202158Z 27014KT 33/M04 A2997 RMK A01 T03341037  RH  009%=      5-min Rain = 0
KGO1 202159Z 26014KT 33/M05 A2997 RMK A01 T03331045  RH  009%=      5-min Rain = 0
KGO1 202200Z 28012KT 33/M05 A2997 RMK A01 T03311045  RH  009%=      5-min Rain = 0
KGO1 202201Z 27011KT 33/M05 A2997 RMK A01 T03301047  RH  009%=      5-min Rain = 0
KGO1 202202Z 29015KT 33/M05 A2997 RMK A01 T03301047  RH  009%=      5-min Rain = 0
KGO1 202203Z 29016KT 33/M05 A2997 RMK A01 T03301050  RH  008%=      5-min Rain = 0
KGO1 202204Z 28016KT 33/M05 A2997 RMK A01 T03301048  RH  009%=      5-min Rain = 0
KGO1 202205Z 26015KT 33/M05 A2997 RMK A01 T03301046  RH  009%=      5-min Rain = 0
KGO1 202206Z 25014KT 33/M05 A2997 RMK A01 T03291045  RH  009%=      5-min Rain = 0
KGO1 202207Z 27015KT 33/M05 A2997 RMK A01 T03281047  RH  009%=      5-min Rain = 0
KGO1 202208Z 27016KT 33/M04 A2997 RMK A01 T03271043  RH  009%=      5-min Rain = 0
KGO1 202209Z 26019KT 33/M05 A2997 RMK A01 T03291046  RH  009%=      5-min Rain = 0
KGO1 202210Z 27016KT 33/M05 A2997 RMK A01 T03281047  RH  009%=      5-min Rain = 0
KGO1 202211Z 27016KT 33/M05 A2997 RMK A01 T03281045  RH  009%=      5-min Rain = 0
KGO1 202212Z 27018KT 33/M05 A2997 RMK A01 T03281051  RH  008%=      5-min Rain = 0
KGO1 202213Z 27016KT 33/M05 A2997 RMK A01 T03271047  RH  009%=      5-min Rain = 0
KGO1 202214Z 28014KT 33/M05 A2997 RMK A01 T03281051  RH  008%=      5-min Rain = 0
KGO1 202215Z 28016KT 33/M05 A2997 RMK A01 T03281049  RH  009%=      5-min Rain = 0
KGO1 202216Z 28016KT 33/M05 A2997 RMK A01 T03281051  RH  008%=      5-min Rain = 0
KGO1 202217Z 28018KT 33/M05 A2997 RMK A01 T03271049  RH  009%=      5-min Rain = 0
KGO1 202218Z 27016G23KT 33/M05 A2997 RMK A01 T03281047  RH  009%=      5-min Rain = 0
KGO1 202219Z 27017G23KT 33/M05 A2997 RMK A01 T03281050  RH  008%=      5-min Rain = 0
KGO1 202220Z 28014KT 33/M05 A2997 RMK A01 T03271047  RH  009%=      5-min Rain = 0
KGO1 202221Z 27015KT 33/M05 A2997 RMK A01 T03291046  RH  009%=      5-min Rain = 0
KGO1 202222Z 26015KT 33/M05 A2997 RMK A01 T03291050  RH  008%=      5-min Rain = 0
KGO1 202223Z 26016KT 33/M05 A2997 RMK A01 T03271048  RH  009%=      5-min Rain = 0
KGO1 202224Z 26017KT 33/M05 A2997 RMK A01 T03261050  RH  009%=      5-min Rain = 0
KGO1 202225Z 27015KT 33/M05 A2997 RMK A01 T03251053  RH  008%=      5-min Rain = 0
KGO1 202226Z 28012KT 32/M05 A2997 RMK A01 T03231050  RH  009%=      5-min Rain = 0
KGO1 202227Z 28012KT 32/M05 A2997 RMK A01 T03231047  RH  009%=      5-min Rain = 0
KGO1 202228Z 27011KT 33/M05 A2997 RMK A01 T03251046  RH  009%=      5-min Rain = 0
KGO1 202229Z 25012KT 33/M04 A2997 RMK A01 T03261044  RH  009%=      5-min Rain = 0
KGO1 202230Z 25013G18KT 33/M04 A2997 RMK A01 T03261040  RH  009%=      5-min Rain = 0
KGO1 202231Z 28011KT 33/M04 A2997 RMK A01 T03271040  RH  009%=      5-min Rain = 0
KGO1 202232Z 27010KT 33/M05 A2997 RMK A01 T03281050  RH  008%=      5-min Rain = 0
KGO1 202233Z 25011KT 33/M05 A2997 RMK A01 T03261045  RH  009%=      5-min Rain = 0
KGO1 202234Z 25013KT 33/M04 A2997 RMK A01 T03261040  RH  009%=      5-min Rain = 0
KGO1 202235Z 26014KT 33/M04 A2997 RMK A01 T03261044  RH  009%=      5-min Rain = 0
KGO1 202236Z 26014KT 33/M05 A2997 RMK A01 T03261046  RH  009%=      5-min Rain = 0
KGO1 202237Z 26016KT 33/M05 A2997 RMK A01 T03271048  RH  009%=      5-min Rain = 0
KGO1 202238Z 27014KT 33/M05 A2996 RMK A01 T03261053  RH  008%=      5-min Rain = 0
KGO1 202239Z 26017KT 33/M05 A2996 RMK A01 T03251050  RH  009%=      5-min Rain = 0
KGO1 202240Z 28017G22KT 33/M05 A2996 RMK A01 T03251051  RH  009%=      5-min Rain = 0
KGO1 202241Z 27015KT 32/M05 A2996 RMK A01 T03241053  RH  008%=      5-min Rain = 0
KGO1 202242Z 27014KT 32/M05 A2996 RMK A01 T03241048  RH  009%=      5-min Rain = 0
KGO1 202243Z 28013KT 33/M05 A2996 RMK A01 T03251048  RH  009%=      5-min Rain = 0
KGO1 202244Z 28014KT 33/M05 A2996 RMK A01 T03261052  RH  008%=      5-min Rain = 0
KGO1 202245Z 28016KT 33/M06 A2996 RMK A01 T03251056  RH  008%=      5-min Rain = 0
KGO1 202246Z 28017KT 32/M06 A2996 RMK A01 T03241057  RH  008%=      5-min Rain = 0
KGO1 202247Z 26010KT 32/M06 A2996 RMK A01 T03231059  RH  008%=      5-min Rain = 0
KGO1 202248Z 27008KT 32/M06 A2996 RMK A01 T03221055  RH  008%=      5-min Rain = 0
KGO1 202249Z 27010G15KT 32/M05 A2996 RMK A01 T03231048  RH  009%=      5-min Rain = 0
KGO1 202250Z 27012KT 33/M05 A2996 RMK A01 T03251049  RH  009%=      5-min Rain = 0
KGO1 202251Z 27011KT 33/M06 A2996 RMK A01 T03251055  RH  008%=      5-min Rain = 0
KGO1 202252Z 26011KT 32/M05 A2996 RMK A01 T03241053  RH  008%=      5-min Rain = 0
KGO1 202253Z 26016G21KT 32/M05 A2996 RMK A01 T03241052  RH  009%=      5-min Rain = 0
KGO1 202254Z 27017KT 32/M06 A2996 RMK A01 T03241057  RH  008%=      5-min Rain = 0
KGO1 202255Z 27015KT 32/M05 A2996 RMK A01 T03241053  RH  008%=      5-min Rain = 0
KGO1 202256Z 27015KT 32/M06 A2996 RMK A01 T03241057  RH  008%=      5-min Rain = 0
KGO1 202257Z 26014KT 32/M06 A2996 RMK A01 T03231060  RH  008%=      5-min Rain = 0
KGO1 202258Z 27012KT 32/M06 A2996 RMK A01 T03231059  RH  008%=      5-min Rain = 0
KGO1 202259Z 27013KT 32/M06 A2996 RMK A01 T03231062  RH  008%=      5-min Rain = 0
KGO1 202300Z 27015G20KT 32/M06 A2996 RMK A01 T03221058  RH  008%=      5-min Rain = 0
KGO1 202301Z 26015KT 32/M06 A2996 RMK A01 T03221061  RH  008%=      5-min Rain = 0
KGO1 202302Z 26011KT 32/M06 A2996 RMK A01 T03221060  RH  008%=      5-min Rain = 0
KGO1 202303Z 26011KT 32/M05 A2996 RMK A01 T03221052  RH  009%=      5-min Rain = 0
KGO1 202304Z 26012KT 32/M06 A2996 RMK A01 T03231055  RH  008%=      5-min Rain = 0
KGO1 202305Z 27012KT 32/M06 A2996 RMK A01 T03241055  RH  008%=      5-min Rain = 0
KGO1 202306Z 28014KT 32/M06 A2996 RMK A01 T03241060  RH  008%=      5-min Rain = 0
KGO1 202307Z 28013KT 32/M06 A2996 RMK A01 T03231060  RH  008%=      5-min Rain = 0
KGO1 202308Z 29014KT 32/M06 A2996 RMK A01 T03221062  RH  008%=      5-min Rain = 0
KGO1 202309Z 28013G18KT 32/M06 A2996 RMK A01 T03221061  RH  008%=      5-min Rain = 0
KGO1 202310Z 27014KT 32/M06 A2996 RMK A01 T03211061  RH  008%=      5-min Rain = 0
KGO1 202311Z 27014KT 32/M06 A2996 RMK A01 T03211063  RH  008%=      5-min Rain = 0
KGO1 202312Z 27014KT 32/M06 A2996 RMK A01 T03201061  RH  008%=      5-min Rain = 0
KGO1 202313Z 27010KT 32/M06 A2996 RMK A01 T03201060  RH  008%=      5-min Rain = 0
KGO1 202314Z 28010KT 32/M06 A2996 RMK A01 T03201055  RH  009%=      5-min Rain = 0
KGO1 202315Z 29013KT 32/M06 A2996 RMK A01 T03211060  RH  008%=      5-min Rain = 0
KGO1 202316Z 28014KT 32/M06 A2996 RMK A01 T03221062  RH  008%=      5-min Rain = 0
KGO1 202317Z 29014KT 32/M06 A2996 RMK A01 T03211064  RH  008%=      5-min Rain = 0
KGO1 202318Z 28014KT 32/M06 A2996 RMK A01 T03211063  RH  008%=      5-min Rain = 0
KGO1 202319Z 28014KT 32/M06 A2996 RMK A01 T03201061  RH  008%=      5-min Rain = 0
KGO1 202320Z 28013KT 32/M06 A2996 RMK A01 T03201062  RH  008%=      5-min Rain = 0
KGO1 202321Z 28019KT 32/M06 A2996 RMK A01 T03201063  RH  008%=      5-min Rain = 0
KGO1 202322Z 28018KT 32/M06 A2996 RMK A01 T03191062  RH  008%=      5-min Rain = 0
KGO1 202323Z 28015KT 32/M06 A2996 RMK A01 T03181064  RH  008%=      5-min Rain = 0
KGO1 202324Z 28014KT 32/M06 A2996 RMK A01 T03181062  RH  008%=      5-min Rain = 0
KGO1 202325Z 29013KT 32/M06 A2996 RMK A01 T03181061  RH  008%=      5-min Rain = 0
KGO1 202326Z 28016KT 32/M06 A2996 RMK A01 T03181062  RH  008%=      5-min Rain = 0
KGO1 202327Z 28013KT 32/M06 A2996 RMK A01 T03181063  RH  008%=      5-min Rain = 0
KGO1 202328Z 28015KT 32/M06 A2996 RMK A01 T03171061  RH  008%=      5-min Rain = 0
KGO1 202329Z 28014KT 32/M06 A2996 RMK A01 T03171062  RH  008%=      5-min Rain = 0
KGO1 202330Z 28011KT 32/M06 A2996 RMK A01 T03161062  RH  008%=      5-min Rain = 0
KGO1 202331Z 28012KT 32/M06 A2996 RMK A01 T03171060  RH  008%=      5-min Rain = 0
KGO1 202332Z 28012KT 32/M06 A2996 RMK A01 T03171061  RH  008%=      5-min Rain = 0
KGO1 202333Z 28012KT 32/M06 A2996 RMK A01 T03171061  RH  008%=      5-min Rain = 0
KGO1 202334Z 29013KT 32/M06 A2996 RMK A01 T03161062  RH  008%=      5-min Rain = 0
KGO1 202335Z 29013KT 32/M07 A2996 RMK A01 T03161065  RH  008%=      5-min Rain = 0
KGO1 202336Z 28011G16KT 32/M07 A2996 RMK A01 T03161065  RH  008%=      5-min Rain = 0
KGO1 202337Z 28011KT 32/M06 A2996 RMK A01 T03161062  RH  008%=      5-min Rain = 0
KGO1 202338Z 28013KT 32/M06 A2996 RMK A01 T03151062  RH  008%=      5-min Rain = 0
KGO1 202339Z 29013KT 32/M07 A2996 RMK A01 T03151065  RH  008%=      5-min Rain = 0
KGO1 202340Z 28013KT 32/M06 A2996 RMK A01 T03151064  RH  008%=      5-min Rain = 0
KGO1 202341Z 28013KT 31/M06 A2996 RMK A01 T03141063  RH  008%=      5-min Rain = 0
KGO1 202342Z 29015KT 31/M07 A2996 RMK A01 T03141065  RH  008%=      5-min Rain = 0
KGO1 202343Z 29014KT 31/M07 A2996 RMK A01 T03131066  RH  008%=      5-min Rain = 0
KGO1 202344Z 29014KT 31/M07 A2996 RMK A01 T03131065  RH  008%=      5-min Rain = 0
KGO1 202345Z 29014KT 31/M07 A2996 RMK A01 T03131065  RH  008%=      5-min Rain = 0
KGO1 202346Z 30014KT 31/M06 A2996 RMK A01 T03121064  RH  008%=      5-min Rain = 0
KGO1 202347Z 29012KT 31/M06 A2996 RMK A01 T03121063  RH  008%=      5-min Rain = 0
KGO1 202348Z 29010KT 31/M06 A2996 RMK A01 T03121062  RH  008%=      5-min Rain = 0
KGO1 202349Z 29009KT 31/M06 A2996 RMK A01 T03111060  RH  009%=      5-min Rain = 0
KGO1 202350Z 30010KT 31/M06 A2996 RMK A01 T03111062  RH  009%=      5-min Rain = 0
KGO1 202351Z 29011KT 31/M06 A2996 RMK A01 T03111060  RH  009%=      5-min Rain = 0
KGO1 202352Z 29011KT 31/M06 A2996 RMK A01 T03111062  RH  009%=      5-min Rain = 0
KGO1 202353Z 30010KT 31/M06 A2996 RMK A01 T03101061  RH  009%=      5-min Rain = 0
KGO1 202354Z 29012KT 31/M06 A2996 RMK A01 T03101063  RH  009%=      5-min Rain = 0
KGO1 202355Z 29012KT 31/M07 A2996 RMK A01 T03091067  RH  008%=      5-min Rain = 0
KGO1 202356Z 29010KT 31/M07 A2996 RMK A01 T03091067  RH  008%=      5-min Rain = 0
KGO1 202357Z 29011KT 31/M07 A2996 RMK A01 T03091066  RH  008%=      5-min Rain = 0
KGO1 202358Z 29010KT 31/M07 A2996 RMK A01 T03081066  RH  008%=      5-min Rain = 0
KGO1 202359Z 29010KT 31/M06 A2996 RMK A01 T03081064  RH  009%=      5-min Rain = 0
KGO1 210000Z 30009KT 31/M06 A2996 RMK A01 T03071063  RH  009%=      5-min Rain = 0
KGO1 210001Z 29012KT 31/M06 A2996 RMK A01 T03061062  RH  009%=      5-min Rain = 0
KGO1 210002Z 29013KT 31/M06 A2996 RMK A01 T03061062  RH  009%=      5-min Rain = 0
KGO1 210003Z 29010KT 31/M06 A2996 RMK A01 T03051061  RH  009%=      5-min Rain = 0
KGO1 210004Z 29011KT 31/M06 A2996 RMK A01 T03051059  RH  009%=      5-min Rain = 0
KGO1 210005Z 29010KT 30/M06 A2996 RMK A01 T03041057  RH  009%=      5-min Rain = 0
KGO1 210006Z 29009KT 30/M05 A2996 RMK A01 T03031054  RH  009%=      5-min Rain = 0
KGO1 210007Z 29009KT 30/M05 A2996 RMK A01 T03021051  RH  010%=      5-min Rain = 0
KGO1 210008Z 29009KT 30/M05 A2996 RMK A01 T03011050  RH  010%=      5-min Rain = 0
KGO1 210009Z 29010KT 30/M05 A2996 RMK A01 T03001050  RH  010%=      5-min Rain = 0
KGO1 210010Z 29009KT 30/M05 A2996 RMK A01 T02991052  RH  010%=      5-min Rain = 0
KGO1 210011Z 29010KT 30/M05 A2996 RMK A01 T02981053  RH  010%=      5-min Rain = 0
KGO1 210012Z 29010KT 30/M06 A2996 RMK A01 T02971055  RH  010%=      5-min Rain = 0
KGO1 210013Z 29009KT 30/M06 A2996 RMK A01 T02961056  RH  010%=      5-min Rain = 0
KGO1 210014Z 29009KT 30/M06 A2996 RMK A01 T02951056  RH  010%=      5-min Rain = 0
KGO1 210015Z 29010KT 30/M06 A2996 RMK A01 T02951056  RH  010%=      5-min Rain = 0
KGO1 210016Z 29010KT 29/M06 A2996 RMK A01 T02941056  RH  010%=      5-min Rain = 0
KGO1 210017Z 29009KT 29/M06 A2996 RMK A01 T02931055  RH  010%=      5-min Rain = 0
KGO1 210018Z 30009KT 29/M05 A2996 RMK A01 T02921054  RH  010%=      5-min Rain = 0
KGO1 210019Z 29009KT 29/M05 A2996 RMK A01 T02901053  RH  010%=      5-min Rain = 0
KGO1 210020Z 29009KT 29/M05 A2996 RMK A01 T02891052  RH  010%=      5-min Rain = 0
KGO1 210021Z 29009KT 29/M05 A2996 RMK A01 T02881052  RH  011%=      5-min Rain = 0
KGO1 210022Z 29009KT 29/M05 A2996 RMK A01 T02861053  RH  011%=      5-min Rain = 0
KGO1 210023Z 29009KT 29/M05 A2997 RMK A01 T02851054  RH  011%=      5-min Rain = 0
KGO1 210024Z 29008KT 28/M05 A2997 RMK A01 T02841053  RH  011%=      5-min Rain = 0
KGO1 210025Z 29008KT 28/M05 A2997 RMK A01 T02831052  RH  011%=      5-min Rain = 0
KGO1 210026Z 29008KT 28/M05 A2997 RMK A01 T02821052  RH  011%=      5-min Rain = 0
KGO1 210027Z 29008KT 28/M05 A2997 RMK A01 T02801052  RH  011%=      5-min Rain = 0
KGO1 210028Z 29008KT 28/M05 A2997 RMK A01 T02791052  RH  011%=      5-min Rain = 0
KGO1 210029Z 29008KT 28/M05 A2997 RMK A01 T02771051  RH  011%=      5-min Rain = 0
KGO1 210030Z 29008KT 28/M05 A2997 RMK A01 T02761050  RH  011%=      5-min Rain = 0
KGO1 210031Z 29008KT 27/M05 A2997 RMK A01 T02731050  RH  012%=      5-min Rain = 0
KGO1 210032Z 29008KT 27/M05 A2997 RMK A01 T02721050  RH  012%=      5-min Rain = 0
KGO1 210033Z 29008KT 27/M05 A2997 RMK A01 T02701048  RH  012%=      5-min Rain = 0
KGO1 210034Z 29008KT 27/M05 A2997 RMK A01 T02691048  RH  012%=      5-min Rain = 0
KGO1 210035Z 29008KT 27/M05 A2997 RMK A01 T02671048  RH  012%=      5-min Rain = 0
KGO1 210036Z 29008KT 27/M05 A2997 RMK A01 T02661048  RH  012%=      5-min Rain = 0
KGO1 210037Z 29007KT 26/M05 A2997 RMK A01 T02641048  RH  012%=      5-min Rain = 0
KGO1 210038Z 29007KT 26/M05 A2997 RMK A01 T02631047  RH  013%=      5-min Rain = 0
KGO1 210039Z 29007KT 26/M05 A2997 RMK A01 T02621048  RH  013%=      5-min Rain = 0
KGO1 210040Z 29007KT 26/M05 A2997 RMK A01 T02601048  RH  013%=      5-min Rain = 0
KGO1 210041Z 29007KT 26/M05 A2997 RMK A01 T02581046  RH  013%=      5-min Rain = 0
KGO1 210042Z 29007KT 26/M05 A2997 RMK A01 T02561045  RH  013%=      5-min Rain = 0
KGO1 210043Z 29007KT 25/M04 A2997 RMK A01 T02531043  RH  014%=      5-min Rain = 0
KGO1 210044Z 29007KT 25/M04 A2997 RMK A01 T02501044  RH  014%=      5-min Rain = 0
KGO1 210045Z 30007KT 25/M05 A2997 RMK A01 T02481045  RH  014%=      5-min Rain = 0
KGO1 210046Z 29008KT 25/M05 A2997 RMK A01 T02461046  RH  014%=      5-min Rain = 0
KGO1 210047Z 29008KT 24/M05 A2997 RMK A01 T02431046  RH  014%=      5-min Rain = 0
KGO1 210048Z 29009KT 24/M05 A2997 RMK A01 T02411048  RH  014%=      5-min Rain = 0
KGO1 210049Z 29009KT 24/M05 A2997 RMK A01 T02391049  RH  014%=      5-min Rain = 0
KGO1 210050Z 29009KT 24/M05 A2997 RMK A01 T02371049  RH  015%=      5-min Rain = 0
KGO1 210051Z 29009KT 23/M05 A2997 RMK A01 T02341049  RH  015%=      5-min Rain = 0
KGO1 210052Z 29009KT 23/M05 A2997 RMK A01 T02311049  RH  015%=      5-min Rain = 0
KGO1 210053Z 29009KT 23/M05 A2997 RMK A01 T02291049  RH  015%=      5-min Rain = 0
KGO1 210054Z 29009KT 23/M05 A2997 RMK A01 T02271049  RH  015%=      5-min Rain = 0
KGO1 210055Z 29009KT 23/M05 A2997 RMK A01 T02251049  RH  016%=      5-min Rain = 0
KGO1 210056Z 29009KT 22/M05 A2997 RMK A01 T02231047  RH  016%=      5-min Rain = 0
KGO1 210057Z 29009KT 22/M05 A2997 RMK A01 T02201046  RH  016%=      5-min Rain = 0
KGO1 210058Z 29009KT 22/M05 A2997 RMK A01 T02181045  RH  017%=      5-min Rain = 0
KGO1 210059Z 29009KT 22/M04 A2997 RMK A01 T02151044  RH  017%=      5-min Rain = 0
KGO1 210100Z 29009KT 21/M04 A2997 RMK A01 T02131043  RH  017%=      5-min Rain = 0
KGO1 210101Z 29009KT 21/M04 A2997 RMK A01 T02111043  RH  018%=      5-min Rain = 0
KGO1 210102Z 29009KT 21/M04 A2997 RMK A01 T02091043  RH  018%=      5-min Rain = 0
KGO1 210103Z 29009KT 21/M04 A2997 RMK A01 T02071042  RH  018%=      5-min Rain = 0
KGO1 210104Z 29009KT 21/M04 A2997 RMK A01 T02051042  RH  019%=      5-min Rain = 0
KGO1 210105Z 29009KT 20/M04 A2997 RMK A01 T02041043  RH  019%=      5-min Rain = 0
KGO1 210106Z 29009KT 20/M04 A2997 RMK A01 T02031044  RH  019%=      5-min Rain = 0
KGO1 210107Z 29009KT 20/M04 A2997 RMK A01 T02021044  RH  019%=      5-min Rain = 0
KGO1 210108Z 29009KT 20/M05 A2997 RMK A01 T02021045  RH  019%=      5-min Rain = 0
KGO1 210109Z 29009KT 20/M05 A2997 RMK A01 T02011045  RH  019%=      5-min Rain = 0
KGO1 210110Z 29009KT 20/M05 A2997 RMK A01 T02011046  RH  018%=      5-min Rain = 0
KGO1 210111Z 29009KT 20/M05 A2997 RMK A01 T02001048  RH  018%=      5-min Rain = 0
KGO1 210112Z 29009KT 20/M05 A2997 RMK A01 T01991049  RH  018%=      5-min Rain = 0
KGO1 210113Z 29010KT 20/M05 A2997 RMK A01 T01991050  RH  018%=      5-min Rain = 0
KGO1 210114Z 29010KT 20/M05 A2997 RMK A01 T01981051  RH  018%=      5-min Rain = 0
KGO1 210115Z 28010KT 20/M05 A2997 RMK A01 T01981051  RH  018%=      5-min Rain = 0
KGO1 210116Z 28010KT 20/M05 A2997 RMK A01 T01981052  RH  018%=      5-min Rain = 0
KGO1 210117Z 28010KT 20/M05 A2997 RMK A01 T01981051  RH  018%=      5-min Rain = 0
KGO1 210118Z 28010KT 20/M05 A2997 RMK A01 T01981052  RH  018%=      5-min Rain = 0
KGO1 210119Z 29010KT 20/M05 A2997 RMK A01 T01991052  RH  018%=      5-min Rain = 0
KGO1 210120Z 29010KT 20/M05 A2997 RMK A01 T01991052  RH  018%=      5-min Rain = 0
KGO1 210121Z 29010KT 20/M05 A2997 RMK A01 T02001053  RH  018%=      5-min Rain = 0
KGO1 210122Z 29010KT 20/M05 A2997 RMK A01 T02011053  RH  018%=      5-min Rain = 0
KGO1 210123Z 29010KT 20/M05 A2997 RMK A01 T02021053  RH  017%=      5-min Rain = 0
KGO1 210124Z 29010KT 20/M05 A2997 RMK A01 T02021053  RH  017%=      5-min Rain = 0
KGO1 210125Z 29010KT 20/M05 A2997 RMK A01 T02011054  RH  017%=      5-min Rain = 0
KGO1 210126Z 29009KT 20/M05 A2998 RMK A01 T01991054  RH  018%=      5-min Rain = 0
KGO1 210127Z 29009KT 20/M05 A2998 RMK A01 T01991054  RH  018%=      5-min Rain = 0
KGO1 210128Z 28009KT 20/M05 A2998 RMK A01 T01981054  RH  018%=      5-min Rain = 0
KGO1 210129Z 29009KT 20/M05 A2997 RMK A01 T01971054  RH  018%=      5-min Rain = 0
KGO1 210130Z 29009KT 20/M05 A2997 RMK A01 T01961054  RH  018%=      5-min Rain = 0
KGO1 210131Z 29009KT 20/M05 A2998 RMK A01 T01951053  RH  018%=      5-min Rain = 0
KGO1 210132Z 29009KT 20/M05 A2998 RMK A01 T01951052  RH  018%=      5-min Rain = 0
KGO1 210133Z 29009KT 19/M05 A2998 RMK A01 T01941052  RH  018%=      5-min Rain = 0
KGO1 210134Z 29009KT 19/M05 A2998 RMK A01 T01931052  RH  019%=      5-min Rain = 0
KGO1 210135Z 29009KT 19/M05 A2998 RMK A01 T01921053  RH  019%=      5-min Rain = 0
KGO1 210136Z 29009KT 19/M05 A2998 RMK A01 T01921052  RH  019%=      5-min Rain = 0
KGO1 210137Z 29009KT 19/M05 A2998 RMK A01 T01921052  RH  019%=      5-min Rain = 0
KGO1 210138Z 29010KT 19/M05 A2998 RMK A01 T01921052  RH  019%=      5-min Rain = 0
KGO1 210139Z 29009KT 19/M05 A2998 RMK A01 T01921052  RH  019%=      5-min Rain = 0
KGO1 210140Z 29009KT 19/M05 A2998 RMK A01 T01921053  RH  019%=      5-min Rain = 0
KGO1 210141Z 29009KT 19/M05 A2998 RMK A01 T01921052  RH  019%=      5-min Rain = 0
KGO1 210142Z 29010KT 19/M05 A2998 RMK A01 T01921052  RH  019%=      5-min Rain = 0
KGO1 210143Z 29010KT 19/M05 A2998 RMK A01 T01911052  RH  019%=      5-min Rain = 0
KGO1 210144Z 28010KT 19/M05 A2998 RMK A01 T01901052  RH  019%=      5-min Rain = 0
KGO1 210145Z 29010KT 19/M05 A2998 RMK A01 T01901053  RH  019%=      5-min Rain = 0
KGO1 210146Z 29010KT 19/M05 A2998 RMK A01 T01891053  RH  019%=      5-min Rain = 0
KGO1 210147Z 28010KT 19/M05 A2998 RMK A01 T01881054  RH  019%=      5-min Rain = 0
KGO1 210148Z 28010KT 19/M06 A2998 RMK A01 T01881055  RH  019%=      5-min Rain = 0
KGO1 210149Z 29009KT 19/M06 A2998 RMK A01 T01881055  RH  019%=      5-min Rain = 0
KGO1 210150Z 29009KT 19/M06 A2998 RMK A01 T01881056  RH  019%=      5-min Rain = 0
KGO1 210151Z 29009KT 19/M06 A2998 RMK A01 T01891057  RH  018%=      5-min Rain = 0
KGO1 210152Z 28009KT 19/M06 A2998 RMK A01 T01901058  RH  018%=      5-min Rain = 0
KGO1 210153Z 28009KT 19/M06 A2998 RMK A01 T01901058  RH  018%=      5-min Rain = 0
KGO1 210154Z 29009KT 19/M06 A2998 RMK A01 T01901058  RH  018%=      5-min Rain = 0
KGO1 210155Z 29009KT 19/M06 A2998 RMK A01 T01891057  RH  018%=      5-min Rain = 0
KGO1 210156Z 29009KT 19/M06 A2998 RMK A01 T01871057  RH  018%=      5-min Rain = 0
KGO1 210157Z 29009KT 19/M06 A2998 RMK A01 T01861058  RH  019%=      5-min Rain = 0
KGO1 210158Z 29008KT 19/M06 A2998 RMK A01 T01861057  RH  019%=      5-min Rain = 0
KGO1 210159Z 29007KT 19/M06 A2998 RMK A01 T01851056  RH  019%=      5-min Rain = 0
KGO1 210200Z 29008KT 18/M05 A2998 RMK A01 T01831054  RH  020%=      5-min Rain = 0
KGO1 210201Z 28007KT 18/M05 A2998 RMK A01 T01811054  RH  020%=      5-min Rain = 0
KGO1 210202Z 28007KT 18/M05 A2998 RMK A01 T01781054  RH  020%=      5-min Rain = 0
KGO1 210203Z 29008KT 18/M05 A2998 RMK A01 T01771053  RH  020%=      5-min Rain = 0
KGO1 210204Z 29008KT 18/M05 A2998 RMK A01 T01761052  RH  021%=      5-min Rain = 0
KGO1 210205Z 29009KT 17/M05 A2998 RMK A01 T01741053  RH  021%=      5-min Rain = 0
KGO1 210206Z 29010KT 17/M05 A2998 RMK A01 T01731052  RH  021%=      5-min Rain = 0
KGO1 210207Z 29010KT 17/M05 A2998 RMK A01 T01731051  RH  021%=      5-min Rain = 0
KGO1 210208Z 29010KT 17/M05 A2998 RMK A01 T01731050  RH  021%=      5-min Rain = 0
KGO1 210209Z 29010KT 17/M05 A2998 RMK A01 T01731050  RH  021%=      5-min Rain = 0
KGO1 210210Z 29010KT 17/M05 A2998 RMK A01 T01741050  RH  021%=      5-min Rain = 0
KGO1 210211Z 29010KT 18/M05 A2998 RMK A01 T01751050  RH  021%=      5-min Rain = 0
KGO1 210212Z 29010KT 18/M05 A2998 RMK A01 T01761050  RH  021%=      5-min Rain = 0
KGO1 210213Z 29010KT 18/M05 A2998 RMK A01 T01761049  RH  021%=      5-min Rain = 0
KGO1 210214Z 29010KT 18/M05 A2998 RMK A01 T01761050  RH  021%=      5-min Rain = 0
KGO1 210215Z 29010KT 18/M05 A2999 RMK A01 T01761050  RH  021%=      5-min Rain = 0
KGO1 210216Z 28010KT 18/M05 A2999 RMK A01 T01751051  RH  021%=      5-min Rain = 0
KGO1 210217Z 29010KT 18/M05 A2999 RMK A01 T01751052  RH  021%=      5-min Rain = 0
KGO1 210218Z 29010KT 18/M05 A2999 RMK A01 T01751052  RH  021%=      5-min Rain = 0
KGO1 210219Z 29009KT 18/M05 A2999 RMK A01 T01761053  RH  021%=      5-min Rain = 0
KGO1 210220Z 29011KT 18/M05 A2999 RMK A01 T01761052  RH  021%=      5-min Rain = 0
KGO1 210221Z 29010KT 18/M05 A2999 RMK A01 T01771051  RH  021%=      5-min Rain = 0
KGO1 210222Z 30010KT 18/M05 A2999 RMK A01 T01781051  RH  021%=      5-min Rain = 0
KGO1 210223Z 29010KT 18/M05 A2999 RMK A01 T01781051  RH  021%=      5-min Rain = 0
KGO1 210224Z 30010KT 18/M05 A2999 RMK A01 T01781051  RH  021%=      5-min Rain = 0
KGO1 210225Z 30010KT 18/M05 A2999 RMK A01 T01781051  RH  020%=      5-min Rain = 0
KGO1 210226Z 30009KT 18/M05 A2999 RMK A01 T01791051  RH  020%=      5-min Rain = 0
KGO1 210227Z 30009KT 18/M05 A2999 RMK A01 T01791051  RH  020%=      5-min Rain = 0
KGO1 210228Z 30009KT 18/M05 A2999 RMK A01 T01781050  RH  021%=      5-min Rain = 0
KGO1 210229Z 30009KT 18/M05 A2999 RMK A01 T01761051  RH  021%=      5-min Rain = 0
KGO1 210230Z 30010KT 18/M05 A2999 RMK A01 T01751051  RH  021%=      5-min Rain = 0
KGO1 210231Z 30010KT 17/M05 A2999 RMK A01 T01741051  RH  021%=      5-min Rain = 0
KGO1 210232Z 30009KT 17/M05 A2999 RMK A01 T01731051  RH  021%=      5-min Rain = 0
KGO1 210233Z 30009KT 17/M05 A2999 RMK A01 T01721051  RH  021%=      5-min Rain = 0
KGO1 210234Z 30009KT 17/M05 A2999 RMK A01 T01711051  RH  021%=      5-min Rain = 0
KGO1 210235Z 30010KT 17/M05 A2999 RMK A01 T01701050  RH  022%=      5-min Rain = 0
KGO1 210236Z 30009KT 17/M05 A2999 RMK A01 T01701050  RH  022%=      5-min Rain = 0
KGO1 210237Z 30008KT 17/M05 A2999 RMK A01 T01701050  RH  022%=      5-min Rain = 0
KGO1 210238Z 30008KT 17/M05 A2999 RMK A01 T01721050  RH  021%=      5-min Rain = 0
KGO1 210239Z 30008KT 17/M05 A2999 RMK A01 T01731052  RH  021%=      5-min Rain = 0
KGO1 210240Z 30009KT 17/M05 A2999 RMK A01 T01741051  RH  021%=      5-min Rain = 0
KGO1 210241Z 30009KT 17/M05 A2999 RMK A01 T01741051  RH  021%=      5-min Rain = 0
KGO1 210242Z 30009KT 17/M05 A2999 RMK A01 T01741051  RH  021%=      5-min Rain = 0
KGO1 210243Z 30009KT 17/M05 A2999 RMK A01 T01721052  RH  021%=      5-min Rain = 0
KGO1 210244Z 30009KT 17/M05 A2999 RMK A01 T01711052  RH  021%=      5-min Rain = 0
KGO1 210245Z 30009KT 17/M05 A2999 RMK A01 T01701052  RH  021%=      5-min Rain = 0
KGO1 210246Z 30009KT 17/M05 A2999 RMK A01 T01701052  RH  022%=      5-min Rain = 0
KGO1 210247Z 30008KT 17/M05 A2999 RMK A01 T01701052  RH  022%=      5-min Rain = 0
KGO1 210248Z 30008KT 17/M05 A2999 RMK A01 T01691051  RH  022%=      5-min Rain = 0
KGO1 210249Z 30008KT 17/M05 A2999 RMK A01 T01691052  RH  022%=      5-min Rain = 0
KGO1 210250Z 30008KT 17/M05 A2999 RMK A01 T01691051  RH  022%=      5-min Rain = 0
KGO1 210251Z 30008KT 17/M05 A2999 RMK A01 T01681052  RH  022%=      5-min Rain = 0
KGO1 210252Z 30008KT 17/M05 A2999 RMK A01 T01681052  RH  022%=      5-min Rain = 0
KGO1 210253Z 30008KT 17/M05 A2999 RMK A01 T01671052  RH  022%=      5-min Rain = 0
KGO1 210254Z 30008KT 17/M05 A2999 RMK A01 T01671053  RH  022%=      5-min Rain = 0
KGO1 210255Z 31007KT 17/M05 A2999 RMK A01 T01671053  RH  022%=      5-min Rain = 0
KGO1 210256Z 30008KT 17/M05 A2999 RMK A01 T01671053  RH  022%=      5-min Rain = 0
KGO1 210257Z 30008KT 17/M05 A2999 RMK A01 T01671053  RH  022%=      5-min Rain = 0
KGO1 210258Z 30008KT 17/M05 A2999 RMK A01 T01671052  RH  022%=      5-min Rain = 0
KGO1 210259Z 31008KT 17/M05 A2999 RMK A01 T01671052  RH  022%=      5-min Rain = 0
KGO1 210300Z 31008KT 17/M05 A2999 RMK A01 T01671051  RH  022%=      5-min Rain = 0
KGO1 210301Z 31008KT 17/M05 A2999 RMK A01 T01671051  RH  022%=      5-min Rain = 0
KGO1 210302Z 30008KT 17/M05 A2999 RMK A01 T01671051  RH  022%=      5-min Rain = 0
KGO1 210303Z 30008KT 17/M05 A2999 RMK A01 T01661051  RH  022%=      5-min Rain = 0
KGO1 210304Z 31008KT 17/M05 A2999 RMK A01 T01651050  RH  022%=      5-min Rain = 0
KGO1 210305Z 30008KT 17/M05 A2999 RMK A01 T01651050  RH  023%=      5-min Rain = 0
KGO1 210306Z 31007KT 16/M05 A2999 RMK A01 T01641050  RH  023%=      5-min Rain = 0
KGO1 210307Z 31007KT 16/M05 A2999 RMK A01 T01641051  RH  023%=      5-min Rain = 0
KGO1 210308Z 31007KT 16/M05 A2999 RMK A01 T01641051  RH  022%=      5-min Rain = 0
KGO1 210309Z 31007KT 16/M05 A30 RMK A01 T01641051  RH  022%=      5-min Rain = 0
KGO1 210310Z 30007KT 16/M05 A30 RMK A01 T01641051  RH  022%=      5-min Rain = 0
KGO1 210311Z 31006KT 16/M05 A30 RMK A01 T01641051  RH  022%=      5-min Rain = 0
KGO1 210312Z 30006KT 16/M05 A30 RMK A01 T01641052  RH  022%=      5-min Rain = 0
KGO1 210313Z 29007KT 16/M05 A30 RMK A01 T01641051  RH  022%=      5-min Rain = 0
KGO1 210314Z 30007KT 16/M05 A30 RMK A01 T01621051  RH  023%=      5-min Rain = 0
KGO1 210315Z 30006KT 16/M05 A30 RMK A01 T01611051  RH  023%=      5-min Rain = 0
KGO1 210316Z 30006KT 16/M05 A30 RMK A01 T01591052  RH  023%=      5-min Rain = 0
KGO1 210317Z 30006KT 16/M05 A30 RMK A01 T01581052  RH  023%=      5-min Rain = 0
KGO1 210318Z 31006KT 16/M05 A30 RMK A01 T01571051  RH  023%=      5-min Rain = 0
KGO1 210319Z 30005KT 16/M05 A30 RMK A01 T01551051  RH  024%=      5-min Rain = 0
KGO1 210320Z 30005KT 15/M05 A30 RMK A01 T01541051  RH  024%=      5-min Rain = 0
KGO1 210321Z 30005KT 15/M05 A30 RMK A01 T01521051  RH  024%=      5-min Rain = 0
KGO1 210322Z 30005KT 15/M05 A30 RMK A01 T01501051  RH  025%=      5-min Rain = 0
KGO1 210323Z 30004KT 15/M05 A30 RMK A01 T01491051  RH  025%=      5-min Rain = 0
KGO1 210324Z 30004KT 15/M05 A30 RMK A01 T01491051  RH  025%=      5-min Rain = 0
KGO1 210325Z 30004KT 15/M05 A30 RMK A01 T01481051  RH  025%=      5-min Rain = 0
KGO1 210326Z 31004KT 15/M05 A30 RMK A01 T01491052  RH  025%=      5-min Rain = 0
KGO1 210327Z 31003KT 15/M05 A30 RMK A01 T01511052  RH  024%=      5-min Rain = 0
KGO1 210328Z 29004KT 15/M05 A30 RMK A01 T01521051  RH  024%=      5-min Rain = 0
KGO1 210329Z 30005KT 15/M05 A30 RMK A01 T01511049  RH  025%=      5-min Rain = 0
KGO1 210330Z 31004KT 15/M05 A30 RMK A01 T01491049  RH  025%=      5-min Rain = 0
KGO1 210331Z 31003KT 15/M05 A30 RMK A01 T01471050  RH  025%=      5-min Rain = 0
KGO1 210332Z 30003KT 15/M05 A30 RMK A01 T01471049  RH  025%=      5-min Rain = 0
KGO1 210333Z 29004KT 15/M05 A30 RMK A01 T01471048  RH  026%=      5-min Rain = 0
KGO1 210334Z 30003KT 15/M05 A30 RMK A01 T01461048  RH  026%=      5-min Rain = 0
KGO1 210335Z 30003KT 15/M05 A30 RMK A01 T01461048  RH  026%=      5-min Rain = 0
KGO1 210336Z 30003KT 15/M05 A30 RMK A01 T01461048  RH  026%=      5-min Rain = 0
KGO1 210337Z 30003KT 15/M05 A30 RMK A01 T01451048  RH  026%=      5-min Rain = 0
KGO1 210338Z 30003KT 15/M05 A30 RMK A01 T01451048  RH  026%=      5-min Rain = 0
KGO1 210339Z 30003KT 15/M05 A30 RMK A01 T01461047  RH  026%=      5-min Rain = 0
KGO1 210340Z 30003KT 15/M05 A30 RMK A01 T01461047  RH  026%=      5-min Rain = 0
KGO1 210341Z 29004KT 15/M05 A30 RMK A01 T01451046  RH  026%=      5-min Rain = 0
KGO1 210342Z 30004KT 14/M05 A30 RMK A01 T01441047  RH  026%=      5-min Rain = 0
KGO1 210343Z 30003KT 14/M05 A30 RMK A01 T01421048  RH  026%=      5-min Rain = 0
KGO1 210344Z 30004KT 14/M05 A30 RMK A01 T01411047  RH  027%=      5-min Rain = 0
KGO1 210345Z 30004KT 14/M05 A30 RMK A01 T01411047  RH  027%=      5-min Rain = 0
KGO1 210346Z 30004KT 14/M05 A30 RMK A01 T01411047  RH  027%=      5-min Rain = 0
KGO1 210347Z 31004KT 14/M05 A30 RMK A01 T01411047  RH  027%=      5-min Rain = 0
KGO1 210348Z 31004KT 14/M05 A30 RMK A01 T01411047  RH  027%=      5-min Rain = 0
KGO1 210349Z 30004KT 14/M05 A30 RMK A01 T01411047  RH  027%=      5-min Rain = 0
KGO1 210350Z 30005KT 14/M05 A30 RMK A01 T01411046  RH  027%=      5-min Rain = 0
KGO1 210351Z 31005KT 14/M05 A30 RMK A01 T01401046  RH  027%=      5-min Rain = 0
KGO1 210352Z 31005KT 14/M05 A30 RMK A01 T01391046  RH  028%=      5-min Rain = 0
KGO1 210353Z 30005KT 14/M05 A30 RMK A01 T01391045  RH  028%=      5-min Rain = 0
KGO1 210354Z 30006KT 14/M04 A30 RMK A01 T01401044  RH  028%=      5-min Rain = 0
KGO1 210355Z 30006KT 14/M04 A30 RMK A01 T01391043  RH  028%=      5-min Rain = 0
KGO1 210356Z 30007KT 14/M04 A30 RMK A01 T01371043  RH  028%=      5-min Rain = 0
KGO1 210357Z 30007KT 14/M04 A30 RMK A01 T01351042  RH  029%=      5-min Rain = 0
KGO1 210358Z 30006KT 13/M04 A30 RMK A01 T01331043  RH  029%=      5-min Rain = 0
KGO1 210359Z 29006KT 13/M05 A30 RMK A01 T01311045  RH  029%=      5-min Rain = 0
KGO1 210400Z 29006KT 13/M05 A30 RMK A01 T01311048  RH  028%=      5-min Rain = 0
KGO1 210401Z 28006KT 13/M05 A30 RMK A01 T01331048  RH  028%=      5-min Rain = 0
KGO1 210402Z 28007KT 14/M05 A30 RMK A01 T01351048  RH  028%=      5-min Rain = 0
KGO1 210403Z 28006KT 14/M05 A30 RMK A01 T01371048  RH  027%=      5-min Rain = 0
KGO1 210404Z 28007KT 14/M05 A30 RMK A01 T01391048  RH  027%=      5-min Rain = 0
KGO1 210405Z 28007KT 14/M05 A30 RMK A01 T01401046  RH  027%=      5-min Rain = 0
KGO1 210406Z 28006KT 14/M05 A30 RMK A01 T01401045  RH  027%=      5-min Rain = 0
KGO1 210407Z 27006KT 14/M05 A30 RMK A01 T01411045  RH  027%=      5-min Rain = 0
KGO1 210408Z 28006KT 14/M05 A30 RMK A01 T01421045  RH  027%=      5-min Rain = 0
KGO1 210409Z 28007KT 14/M04 A30 RMK A01 T01421044  RH  027%=      5-min Rain = 0
KGO1 210410Z 28007KT 14/M05 A30 RMK A01 T01411045  RH  027%=      5-min Rain = 0
KGO1 210411Z 29007KT 14/M05 A30 RMK A01 T01431046  RH  027%=      5-min Rain = 0
KGO1 210412Z 29007KT 14/M05 A30 RMK A01 T01441045  RH  027%=      5-min Rain = 0
KGO1 210413Z 29007KT 14/M05 A30 RMK A01 T01441045  RH  027%=      5-min Rain = 0
KGO1 210414Z 29007KT 14/M04 A30 RMK A01 T01441044  RH  027%=      5-min Rain = 0
KGO1 210415Z 30007KT 14/M04 A30 RMK A01 T01421043  RH  027%=      5-min Rain = 0
KGO1 210416Z 30007KT 14/M04 A30 RMK A01 T01401044  RH  028%=      5-min Rain = 0
KGO1 210417Z 32006KT 14/M04 A3001 RMK A01 T01381043  RH  028%=      5-min Rain = 0
KGO1 210418Z 34007KT 13/M04 A3001 RMK A01 T01331042  RH  029%=      5-min Rain = 0
KGO1 210419Z 34008KT 13/M04 A3001 RMK A01 T01301043  RH  030%=      5-min Rain = 0
KGO1 210420Z 36009KT 13/M04 A3001 RMK A01 T01291042  RH  030%=      5-min Rain = 0
KGO1 210421Z 00011KT 13/M04 A3001 RMK A01 T01301043  RH  030%=      5-min Rain = 0
KGO1 210422Z 00009KT 14/M04 A3001 RMK A01 T01391042  RH  028%=      5-min Rain = 0
KGO1 210423Z 00009KT 15/M04 A3001 RMK A01 T01471041  RH  027%=      5-min Rain = 0
KGO1 210424Z 00009KT 15/M04 A3001 RMK A01 T01491041  RH  027%=      5-min Rain = 0
KGO1 210425Z 36009KT 15/M04 A3001 RMK A01 T01471041  RH  027%=      5-min Rain = 0
KGO1 210426Z 36010KT 14/M04 A3001 RMK A01 T01421041  RH  028%=      5-min Rain = 0
KGO1 210427Z 36009KT 14/M04 A3001 RMK A01 T01391042  RH  028%=      5-min Rain = 0
KGO1 210428Z 36008KT 14/M04 A3001 RMK A01 T01361042  RH  029%=      5-min Rain = 0
KGO1 210429Z 36008KT 14/M04 A3001 RMK A01 T01351042  RH  029%=      5-min Rain = 0
KGO1 210430Z 36006KT 14/M04 A3001 RMK A01 T01351043  RH  029%=      5-min Rain = 0
KGO1 210431Z 00007KT 14/M04 A3001 RMK A01 T01371043  RH  028%=      5-min Rain = 0
KGO1 210432Z 01008KT 14/M04 A3001 RMK A01 T01391043  RH  028%=      5-min Rain = 0
KGO1 210433Z 01008KT 14/M04 A3001 RMK A01 T01411041  RH  028%=      5-min Rain = 0
KGO1 210434Z 01008KT 14/M04 A3001 RMK A01 T01431038  RH  028%=      5-min Rain = 0
KGO1 210435Z 00008KT 14/M04 A3001 RMK A01 T01441036  RH  029%=      5-min Rain = 0
KGO1 210436Z 01008KT 15/M03 A3001 RMK A01 T01451032  RH  029%=      5-min Rain = 0
KGO1 210437Z 01009KT 15/M03 A3001 RMK A01 T01471030  RH  029%=      5-min Rain = 0
KGO1 210438Z 01008KT 15/M03 A3001 RMK A01 T01481028  RH  030%=      5-min Rain = 0
KGO1 210439Z 01008KT 15/M03 A3001 RMK A01 T01481027  RH  030%=      5-min Rain = 0
KGO1 210440Z 01008KT 15/M02 A3001 RMK A01 T01481024  RH  030%=      5-min Rain = 0
KGO1 210441Z 01008KT 15/M02 A3001 RMK A01 T01501020  RH  031%=      5-min Rain = 0
KGO1 210442Z 01008KT 15/M02 A3001 RMK A01 T01501019  RH  031%=      5-min Rain = 0
KGO1 210443Z 01008KT 15/M02 A3001 RMK A01 T01491017  RH  032%=      5-min Rain = 0
KGO1 210444Z 01007KT 15/M02 A3001 RMK A01 T01491017  RH  032%=      5-min Rain = 0
KGO1 210445Z 02007KT 15/M02 A3001 RMK A01 T01481016  RH  032%=      5-min Rain = 0
KGO1 210446Z 01007KT 15/M01 A3001 RMK A01 T01481014  RH  033%=      5-min Rain = 0
KGO1 210447Z 01006KT 15/M01 A3001 RMK A01 T01481014  RH  033%=      5-min Rain = 0
KGO1 210448Z 01006KT 15/M01 A3001 RMK A01 T01481013  RH  033%=      5-min Rain = 0
KGO1 210449Z 01006KT 15/M01 A3001 RMK A01 T01481012  RH  033%=      5-min Rain = 0
KGO1 210450Z 01006KT 15/M01 A3001 RMK A01 T01471011  RH  034%=      5-min Rain = 0
KGO1 210451Z 01006KT 15/M01 A3001 RMK A01 T01461010  RH  034%=      5-min Rain = 0
KGO1 210452Z 02006KT 15/M01 A3001 RMK A01 T01471009  RH  034%=      5-min Rain = 0
KGO1 210453Z 02006KT 15/M01 A3001 RMK A01 T01471008  RH  034%=      5-min Rain = 0
KGO1 210454Z 02006KT 15/M01 A3001 RMK A01 T01491008  RH  034%=      5-min Rain = 0
KGO1 210455Z 02006KT 15/M01 A3001 RMK A01 T01491007  RH  034%=      5-min Rain = 0
KGO1 210456Z 01007KT 15/M01 A3001 RMK A01 T01481006  RH  035%=      5-min Rain = 0
KGO1 210457Z 01007KT 15/M01 A3001 RMK A01 T01451005  RH  036%=      5-min Rain = 0
KGO1 210458Z 01007KT 14/M00 A3001 RMK A01 T01421004  RH  037%=      5-min Rain = 0
KGO1 210459Z 01007KT 14/M00 A3001 RMK A01 T01411003  RH  037%=      5-min Rain = 0
KGO1 210500Z 01007KT 14/M00 A3001 RMK A01 T01401001  RH  038%=      5-min Rain = 0

Page generated in 0.2849 seconds.